<?xml version='1.0' encoding='UTF-8' standalone='yes' ?>
<gpx version="1.1" creator="OsmAnd~" xmlns="http://www.topografix.com/GPX/1/1" xmlns:xsi="http://www.w3.org/2001/XMLSchema-instance" xsi:schemaLocation="http://www.topografix.com/GPX/1/1 http://www.topografix.com/GPX/1/1/gpx.xsd">
  <trk>
    <trkseg>
      <trkpt lat="46.323838" lon="7.4346781">
        <ele>1722.0</ele>
        <time>2016-08-23T16:43:43Z</time>
        <hdop>3.0</hdop>
      </trkpt>
    </trkseg>
    <trkseg>
      <trkpt lat="46.3238385" lon="7.4346771">
        <ele>1722.0</ele>
        <time>2016-08-23T16:43:56Z</time>
        <hdop>3.0</hdop>
      </trkpt>
      <trkpt lat="46.3238391" lon="7.434676">
        <ele>1722.0</ele>
        <time>2016-08-23T16:44:01Z</time>
        <hdop>3.0</hdop>
      </trkpt>
      <trkpt lat="46.3238393" lon="7.4346754">
        <ele>1722.0</ele>
        <time>2016-08-23T16:44:07Z</time>
        <hdop>3.0</hdop>
      </trkpt>
      <trkpt lat="46.3238385" lon="7.4346628">
        <ele>1722.0</ele>
        <time>2016-08-23T16:44:12Z</time>
        <hdop>3.0</hdop>
      </trkpt>
      <trkpt lat="46.3238397" lon="7.4346557">
        <ele>1722.0</ele>
        <time>2016-08-23T16:44:17Z</time>
        <hdop>3.0</hdop>
      </trkpt>
      <trkpt lat="46.3237824" lon="7.4346294">
        <ele>1720.0</ele>
        <time>2016-08-23T16:44:23Z</time>
        <hdop>3.0</hdop>
        <extensions>
          <speed>2.9528629779815674</speed>
        </extensions>
      </trkpt>
      <trkpt lat="46.3235558" lon="7.4346244">
        <ele>1718.0</ele>
        <time>2016-08-23T16:44:29Z</time>
        <hdop>3.0</hdop>
        <extensions>
          <speed>4.981967449188232</speed>
        </extensions>
      </trkpt>
      <trkpt lat="46.323188" lon="7.4346187">
        <ele>1712.0</ele>
        <time>2016-08-23T16:44:35Z</time>
        <hdop>3.0</hdop>
        <extensions>
          <speed>7.625903129577637</speed>
        </extensions>
      </trkpt>
      <trkpt lat="46.3227686" lon="7.4346578">
        <ele>1707.0</ele>
        <time>2016-08-23T16:44:41Z</time>
        <hdop>3.0</hdop>
        <extensions>
          <speed>8.222323417663574</speed>
        </extensions>
      </trkpt>
      <trkpt lat="46.3224002" lon="7.4347229">
        <ele>1703.0</ele>
        <time>2016-08-23T16:44:46Z</time>
        <hdop>3.0</hdop>
        <extensions>
          <speed>8.202200889587402</speed>
        </extensions>
      </trkpt>
      <trkpt lat="46.3219407" lon="7.434636">
        <ele>1697.0</ele>
        <time>2016-08-23T16:44:52Z</time>
        <hdop>3.0</hdop>
        <extensions>
          <speed>9.206655502319336</speed>
        </extensions>
      </trkpt>
      <trkpt lat="46.3214248" lon="7.4345378">
        <ele>1693.0</ele>
        <time>2016-08-23T16:44:58Z</time>
        <hdop>3.0</hdop>
        <extensions>
          <speed>9.628732681274414</speed>
        </extensions>
      </trkpt>
      <trkpt lat="46.3210642" lon="7.4343867">
        <ele>1690.0</ele>
        <time>2016-08-23T16:45:03Z</time>
        <hdop>3.0</hdop>
        <extensions>
          <speed>8.384330749511719</speed>
        </extensions>
      </trkpt>
      <trkpt lat="46.3207772" lon="7.4340297">
        <ele>1685.0</ele>
        <time>2016-08-23T16:45:08Z</time>
        <hdop>3.0</hdop>
        <extensions>
          <speed>8.290644645690918</speed>
        </extensions>
      </trkpt>
      <trkpt lat="46.3203575" lon="7.4336777">
        <ele>1680.0</ele>
        <time>2016-08-23T16:45:14Z</time>
        <hdop>3.0</hdop>
        <extensions>
          <speed>9.489298820495605</speed>
        </extensions>
      </trkpt>
      <trkpt lat="46.319924" lon="7.4332674">
        <ele>1676.0</ele>
        <time>2016-08-23T16:45:20Z</time>
        <hdop>3.0</hdop>
        <extensions>
          <speed>9.46902847290039</speed>
        </extensions>
      </trkpt>
      <trkpt lat="46.319381" lon="7.4331623">
        <ele>1671.0</ele>
        <time>2016-08-23T16:45:26Z</time>
        <hdop>3.0</hdop>
        <extensions>
          <speed>10.418463706970215</speed>
        </extensions>
      </trkpt>
      <trkpt lat="46.3189486" lon="7.4330594">
        <ele>1667.0</ele>
        <time>2016-08-23T16:45:31Z</time>
        <hdop>3.0</hdop>
        <extensions>
          <speed>9.115974426269531</speed>
        </extensions>
      </trkpt>
      <trkpt lat="46.3184785" lon="7.432679">
        <ele>1662.0</ele>
        <time>2016-08-23T16:45:37Z</time>
        <hdop>3.0</hdop>
        <extensions>
          <speed>10.309393882751465</speed>
        </extensions>
      </trkpt>
      <trkpt lat="46.3181059" lon="7.432312">
        <ele>1657.0</ele>
        <time>2016-08-23T16:45:42Z</time>
        <hdop>3.0</hdop>
        <extensions>
          <speed>10.128385543823242</speed>
        </extensions>
      </trkpt>
      <trkpt lat="46.317829" lon="7.431713">
        <ele>1655.0</ele>
        <time>2016-08-23T16:45:48Z</time>
        <hdop>7.0</hdop>
        <extensions>
          <speed>8.890456199645996</speed>
        </extensions>
      </trkpt>
      <trkpt lat="46.3175194" lon="7.4313998">
        <ele>1650.0</ele>
        <time>2016-08-23T16:45:53Z</time>
        <hdop>4.0</hdop>
        <extensions>
          <speed>8.49039363861084</speed>
        </extensions>
      </trkpt>
      <trkpt lat="46.3173001" lon="7.4308473">
        <ele>1643.0</ele>
        <time>2016-08-23T16:45:58Z</time>
        <hdop>3.0</hdop>
        <extensions>
          <speed>9.937655448913574</speed>
        </extensions>
      </trkpt>
      <trkpt lat="46.3170109" lon="7.430301">
        <ele>1664.0</ele>
        <time>2016-08-23T16:46:03Z</time>
        <hdop>4.0</hdop>
        <extensions>
          <speed>10.21274185180664</speed>
        </extensions>
      </trkpt>
      <trkpt lat="46.3164873" lon="7.4298207">
        <ele>1639.0</ele>
        <time>2016-08-23T16:46:09Z</time>
        <hdop>4.0</hdop>
        <extensions>
          <speed>11.745850563049316</speed>
        </extensions>
      </trkpt>
      <trkpt lat="46.3160873" lon="7.4293985">
        <ele>1632.0</ele>
        <time>2016-08-23T16:46:14Z</time>
        <hdop>3.0</hdop>
        <extensions>
          <speed>11.142585754394531</speed>
        </extensions>
      </trkpt>
      <trkpt lat="46.3156431" lon="7.4288224">
        <ele>1626.0</ele>
        <time>2016-08-23T16:46:20Z</time>
        <hdop>4.0</hdop>
        <extensions>
          <speed>10.696059226989746</speed>
        </extensions>
      </trkpt>
      <trkpt lat="46.3152829" lon="7.428095">
        <ele>1620.0</ele>
        <time>2016-08-23T16:46:26Z</time>
        <hdop>3.0</hdop>
        <extensions>
          <speed>11.39212417602539</speed>
        </extensions>
      </trkpt>
      <trkpt lat="46.3148605" lon="7.4274227">
        <ele>1618.0</ele>
        <time>2016-08-23T16:46:32Z</time>
        <hdop>4.0</hdop>
        <extensions>
          <speed>11.87015151977539</speed>
        </extensions>
      </trkpt>
      <trkpt lat="46.3144441" lon="7.4266995">
        <ele>1609.0</ele>
        <time>2016-08-23T16:46:38Z</time>
        <hdop>4.0</hdop>
        <extensions>
          <speed>12.106610298156738</speed>
        </extensions>
      </trkpt>
      <trkpt lat="46.3141752" lon="7.4260342">
        <ele>1603.0</ele>
        <time>2016-08-23T16:46:43Z</time>
        <hdop>3.0</hdop>
        <extensions>
          <speed>10.764575958251953</speed>
        </extensions>
      </trkpt>
      <trkpt lat="46.3140582" lon="7.4252524">
        <ele>1595.0</ele>
        <time>2016-08-23T16:46:49Z</time>
        <hdop>3.0</hdop>
        <extensions>
          <speed>10.56613540649414</speed>
        </extensions>
      </trkpt>
      <trkpt lat="46.3138077" lon="7.424489">
        <ele>1589.0</ele>
        <time>2016-08-23T16:46:55Z</time>
        <hdop>3.0</hdop>
        <extensions>
          <speed>11.404757499694824</speed>
        </extensions>
      </trkpt>
      <trkpt lat="46.3134488" lon="7.4236576">
        <ele>1583.0</ele>
        <time>2016-08-23T16:47:01Z</time>
        <hdop>3.0</hdop>
        <extensions>
          <speed>12.573118209838867</speed>
        </extensions>
      </trkpt>
      <trkpt lat="46.3132447" lon="7.4229158">
        <ele>1580.0</ele>
        <time>2016-08-23T16:47:07Z</time>
        <hdop>3.0</hdop>
        <extensions>
          <speed>8.930560111999512</speed>
        </extensions>
      </trkpt>
      <trkpt lat="46.31313" lon="7.4229403">
        <ele>1578.0</ele>
        <time>2016-08-23T16:47:13Z</time>
        <hdop>4.0</hdop>
        <extensions>
          <speed>4.920254230499268</speed>
        </extensions>
      </trkpt>
      <trkpt lat="46.3132231" lon="7.4233223">
        <ele>1571.0</ele>
        <time>2016-08-23T16:47:18Z</time>
        <hdop>3.0</hdop>
        <extensions>
          <speed>7.516448497772217</speed>
        </extensions>
      </trkpt>
      <trkpt lat="46.313408" lon="7.4240176">
        <ele>1569.0</ele>
        <time>2016-08-23T16:47:24Z</time>
        <hdop>4.0</hdop>
        <extensions>
          <speed>9.880248069763184</speed>
        </extensions>
      </trkpt>
      <trkpt lat="46.3135859" lon="7.4247939">
        <ele>1565.0</ele>
        <time>2016-08-23T16:47:30Z</time>
        <hdop>4.0</hdop>
        <extensions>
          <speed>10.176541328430176</speed>
        </extensions>
      </trkpt>
      <trkpt lat="46.3137094" lon="7.4254627">
        <ele>1561.0</ele>
        <time>2016-08-23T16:47:35Z</time>
        <hdop>4.0</hdop>
        <extensions>
          <speed>11.780105590820313</speed>
        </extensions>
      </trkpt>
      <trkpt lat="46.313707" lon="7.4264558">
        <ele>1555.0</ele>
        <time>2016-08-23T16:47:41Z</time>
        <hdop>5.0</hdop>
        <extensions>
          <speed>12.690251350402832</speed>
        </extensions>
      </trkpt>
      <trkpt lat="46.3139282" lon="7.4274026">
        <ele>1553.0</ele>
        <time>2016-08-23T16:47:47Z</time>
        <hdop>6.0</hdop>
        <extensions>
          <speed>12.649999618530273</speed>
        </extensions>
      </trkpt>
      <trkpt lat="46.3142078" lon="7.4283353">
        <ele>1547.0</ele>
        <time>2016-08-23T16:47:53Z</time>
        <hdop>4.0</hdop>
        <extensions>
          <speed>13.35512638092041</speed>
        </extensions>
      </trkpt>
      <trkpt lat="46.3144307" lon="7.4293654">
        <ele>1541.0</ele>
        <time>2016-08-23T16:47:59Z</time>
        <hdop>4.0</hdop>
        <extensions>
          <speed>13.213875770568848</speed>
        </extensions>
      </trkpt>
      <trkpt lat="46.3148012" lon="7.4302804">
        <ele>1531.0</ele>
        <time>2016-08-23T16:48:05Z</time>
        <hdop>4.0</hdop>
        <extensions>
          <speed>13.07642936706543</speed>
        </extensions>
      </trkpt>
      <trkpt lat="46.3150097" lon="7.4310088">
        <ele>1529.0</ele>
        <time>2016-08-23T16:48:11Z</time>
        <hdop>4.0</hdop>
        <extensions>
          <speed>6.4200310707092285</speed>
        </extensions>
      </trkpt>
      <trkpt lat="46.3150691" lon="7.4312568">
        <ele>1525.0</ele>
        <time>2016-08-23T16:48:17Z</time>
        <hdop>4.0</hdop>
        <extensions>
          <speed>0.33060550689697266</speed>
        </extensions>
      </trkpt>
      <trkpt lat="46.3151102" lon="7.4314132">
        <ele>1522.0</ele>
        <time>2016-08-23T16:48:22Z</time>
        <hdop>4.0</hdop>
        <extensions>
          <speed>4.150975704193115</speed>
        </extensions>
      </trkpt>
      <trkpt lat="46.3152834" lon="7.4318378">
        <ele>1518.0</ele>
        <time>2016-08-23T16:48:28Z</time>
        <hdop>4.0</hdop>
        <extensions>
          <speed>8.261749267578125</speed>
        </extensions>
      </trkpt>
      <trkpt lat="46.3156387" lon="7.4324088">
        <ele>1515.0</ele>
        <time>2016-08-23T16:48:34Z</time>
        <hdop>5.0</hdop>
        <extensions>
          <speed>10.700995445251465</speed>
        </extensions>
      </trkpt>
      <trkpt lat="46.3160454" lon="7.4331023">
        <ele>1501.0</ele>
        <time>2016-08-23T16:48:40Z</time>
        <hdop>3.0</hdop>
        <extensions>
          <speed>11.705536842346191</speed>
        </extensions>
      </trkpt>
      <trkpt lat="46.3161965" lon="7.4339374">
        <ele>1496.0</ele>
        <time>2016-08-23T16:48:46Z</time>
        <hdop>3.0</hdop>
        <extensions>
          <speed>9.612517356872559</speed>
        </extensions>
      </trkpt>
      <trkpt lat="46.3162407" lon="7.4342298">
        <ele>1493.0</ele>
        <time>2016-08-23T16:48:51Z</time>
        <hdop>4.0</hdop>
        <extensions>
          <speed>1.8899999856948853</speed>
        </extensions>
      </trkpt>
      <trkpt lat="46.3161949" lon="7.4342074">
        <ele>1493.0</ele>
        <time>2016-08-23T16:48:56Z</time>
        <hdop>3.0</hdop>
        <extensions>
          <speed>0.8720664978027344</speed>
        </extensions>
      </trkpt>
      <trkpt lat="46.3161408" lon="7.4339242">
        <ele>1491.0</ele>
        <time>2016-08-23T16:49:02Z</time>
        <hdop>3.0</hdop>
        <extensions>
          <speed>5.215994834899902</speed>
        </extensions>
      </trkpt>
      <trkpt lat="46.3159684" lon="7.4335035">
        <ele>1489.0</ele>
        <time>2016-08-23T16:49:08Z</time>
        <hdop>3.0</hdop>
        <extensions>
          <speed>6.2100324630737305</speed>
        </extensions>
      </trkpt>
      <trkpt lat="46.3156287" lon="7.4330564">
        <ele>1491.0</ele>
        <time>2016-08-23T16:49:14Z</time>
        <hdop>3.0</hdop>
        <extensions>
          <speed>8.561688423156738</speed>
        </extensions>
      </trkpt>
      <trkpt lat="46.315248" lon="7.4326532">
        <ele>1488.0</ele>
        <time>2016-08-23T16:49:20Z</time>
        <hdop>4.0</hdop>
        <extensions>
          <speed>8.381169319152832</speed>
        </extensions>
      </trkpt>
      <trkpt lat="46.3149404" lon="7.4323893">
        <ele>1482.0</ele>
        <time>2016-08-23T16:49:25Z</time>
        <hdop>4.0</hdop>
        <extensions>
          <speed>7.322055816650391</speed>
        </extensions>
      </trkpt>
      <trkpt lat="46.3145926" lon="7.4321435">
        <ele>1480.0</ele>
        <time>2016-08-23T16:49:31Z</time>
        <hdop>4.0</hdop>
        <extensions>
          <speed>5.270085334777832</speed>
        </extensions>
      </trkpt>
      <trkpt lat="46.3145247" lon="7.4321213">
        <ele>1477.0</ele>
        <time>2016-08-23T16:49:36Z</time>
        <hdop>3.0</hdop>
        <extensions>
          <speed>0.7002856731414795</speed>
        </extensions>
      </trkpt>
      <trkpt lat="46.31464" lon="7.4322793">
        <ele>1472.0</ele>
        <time>2016-08-23T16:49:42Z</time>
        <hdop>3.0</hdop>
        <extensions>
          <speed>5.2424421310424805</speed>
        </extensions>
      </trkpt>
      <trkpt lat="46.3148205" lon="7.4325388">
        <ele>1460.0</ele>
        <time>2016-08-23T16:49:47Z</time>
        <hdop>4.0</hdop>
        <extensions>
          <speed>6.010008335113525</speed>
        </extensions>
      </trkpt>
      <trkpt lat="46.3150458" lon="7.4328">
        <ele>1459.0</ele>
        <time>2016-08-23T16:49:53Z</time>
        <hdop>4.0</hdop>
        <extensions>
          <speed>3.4159772396087646</speed>
        </extensions>
      </trkpt>
      <trkpt lat="46.3150761" lon="7.4328949">
        <ele>1461.0</ele>
        <time>2016-08-23T16:49:58Z</time>
        <hdop>3.0</hdop>
        <extensions>
          <speed>1.0304367542266846</speed>
        </extensions>
      </trkpt>
      <trkpt lat="46.3150599" lon="7.4329164">
        <ele>1463.0</ele>
        <time>2016-08-23T16:50:04Z</time>
        <hdop>4.0</hdop>
      </trkpt>
      <trkpt lat="46.3150689" lon="7.4329338">
        <ele>1459.0</ele>
        <time>2016-08-23T16:50:09Z</time>
        <hdop>4.0</hdop>
      </trkpt>
      <trkpt lat="46.3150859" lon="7.4329481">
        <ele>1458.0</ele>
        <time>2016-08-23T16:50:15Z</time>
        <hdop>3.0</hdop>
      </trkpt>
      <trkpt lat="46.3150909" lon="7.432959">
        <ele>1461.0</ele>
        <time>2016-08-23T16:50:21Z</time>
        <hdop>3.0</hdop>
      </trkpt>
      <trkpt lat="46.3150939" lon="7.432989">
        <ele>1463.0</ele>
        <time>2016-08-23T16:50:27Z</time>
        <hdop>3.0</hdop>
      </trkpt>
      <trkpt lat="46.3150939" lon="7.4329892">
        <ele>1463.0</ele>
        <time>2016-08-23T16:50:32Z</time>
        <hdop>3.0</hdop>
      </trkpt>
      <trkpt lat="46.3150939" lon="7.4329895">
        <ele>1463.0</ele>
        <time>2016-08-23T16:50:39Z</time>
        <hdop>3.0</hdop>
      </trkpt>
      <trkpt lat="46.315094" lon="7.4329897">
        <ele>1463.0</ele>
        <time>2016-08-23T16:50:44Z</time>
        <hdop>3.0</hdop>
      </trkpt>
      <trkpt lat="46.3150943" lon="7.4329898">
        <ele>1463.0</ele>
        <time>2016-08-23T16:50:50Z</time>
        <hdop>5.0</hdop>
      </trkpt>
      <trkpt lat="46.3150942" lon="7.4329897">
        <ele>1463.0</ele>
        <time>2016-08-23T16:50:55Z</time>
        <hdop>4.0</hdop>
      </trkpt>
      <trkpt lat="46.3150942" lon="7.4329891">
        <ele>1463.0</ele>
        <time>2016-08-23T16:51:01Z</time>
        <hdop>4.0</hdop>
      </trkpt>
      <trkpt lat="46.3151052" lon="7.4329616">
        <ele>1461.0</ele>
        <time>2016-08-23T16:51:07Z</time>
        <hdop>3.0</hdop>
      </trkpt>
      <trkpt lat="46.3151256" lon="7.4330356">
        <ele>1460.0</ele>
        <time>2016-08-23T16:51:12Z</time>
        <hdop>3.0</hdop>
        <extensions>
          <speed>2.657310724258423</speed>
        </extensions>
      </trkpt>
      <trkpt lat="46.315152" lon="7.4331141">
        <ele>1459.0</ele>
        <time>2016-08-23T16:51:18Z</time>
        <hdop>4.0</hdop>
        <extensions>
          <speed>1.823320984840393</speed>
        </extensions>
      </trkpt>
      <trkpt lat="46.3151133" lon="7.4332523">
        <ele>1452.0</ele>
        <time>2016-08-23T16:51:24Z</time>
        <hdop>4.0</hdop>
        <extensions>
          <speed>3.3299999237060547</speed>
        </extensions>
      </trkpt>
      <trkpt lat="46.3149124" lon="7.4332935">
        <ele>1451.0</ele>
        <time>2016-08-23T16:51:29Z</time>
        <hdop>4.0</hdop>
        <extensions>
          <speed>4.135698318481445</speed>
        </extensions>
      </trkpt>
      <trkpt lat="46.3146226" lon="7.4332702">
        <ele>1452.0</ele>
        <time>2016-08-23T16:51:35Z</time>
        <hdop>4.0</hdop>
        <extensions>
          <speed>5.550144195556641</speed>
        </extensions>
      </trkpt>
      <trkpt lat="46.314322" lon="7.4331024">
        <ele>1449.0</ele>
        <time>2016-08-23T16:51:41Z</time>
        <hdop>6.0</hdop>
        <extensions>
          <speed>4.570394039154053</speed>
        </extensions>
      </trkpt>
      <trkpt lat="46.3141094" lon="7.4331904">
        <ele>1443.0</ele>
        <time>2016-08-23T16:51:47Z</time>
        <hdop>5.0</hdop>
        <extensions>
          <speed>4.854122161865234</speed>
        </extensions>
      </trkpt>
      <trkpt lat="46.3138792" lon="7.433169">
        <ele>1431.0</ele>
        <time>2016-08-23T16:51:52Z</time>
        <hdop>4.0</hdop>
        <extensions>
          <speed>3.456385374069214</speed>
        </extensions>
      </trkpt>
      <trkpt lat="46.3136943" lon="7.4331533">
        <ele>1429.0</ele>
        <time>2016-08-23T16:51:58Z</time>
        <hdop>4.0</hdop>
        <extensions>
          <speed>3.299999952316284</speed>
        </extensions>
      </trkpt>
      <trkpt lat="46.3134711" lon="7.4330873">
        <ele>1422.0</ele>
        <time>2016-08-23T16:52:04Z</time>
        <hdop>4.0</hdop>
        <extensions>
          <speed>2.288755178451538</speed>
        </extensions>
      </trkpt>
      <trkpt lat="46.3132269" lon="7.4328903">
        <ele>1420.0</ele>
        <time>2016-08-23T16:52:10Z</time>
        <hdop>4.0</hdop>
        <extensions>
          <speed>5.240400791168213</speed>
        </extensions>
      </trkpt>
      <trkpt lat="46.312912" lon="7.4327905">
        <ele>1413.0</ele>
        <time>2016-08-23T16:52:15Z</time>
        <hdop>6.0</hdop>
        <extensions>
          <speed>6.6492180824279785</speed>
        </extensions>
      </trkpt>
      <trkpt lat="46.3126613" lon="7.4325226">
        <ele>1404.0</ele>
        <time>2016-08-23T16:52:21Z</time>
        <hdop>6.0</hdop>
        <extensions>
          <speed>4.625635147094727</speed>
        </extensions>
      </trkpt>
      <trkpt lat="46.3123747" lon="7.4324622">
        <ele>1392.0</ele>
        <time>2016-08-23T16:52:27Z</time>
        <hdop>5.0</hdop>
        <extensions>
          <speed>4.075414180755615</speed>
        </extensions>
      </trkpt>
      <trkpt lat="46.3121766" lon="7.4323968">
        <ele>1386.0</ele>
        <time>2016-08-23T16:52:33Z</time>
        <hdop>4.0</hdop>
        <extensions>
          <speed>2.720294237136841</speed>
        </extensions>
      </trkpt>
      <trkpt lat="46.3119653" lon="7.4322527">
        <ele>1382.0</ele>
        <time>2016-08-23T16:52:38Z</time>
        <hdop>4.0</hdop>
        <extensions>
          <speed>4.789405345916748</speed>
        </extensions>
      </trkpt>
      <trkpt lat="46.311789" lon="7.4320818">
        <ele>1374.0</ele>
        <time>2016-08-23T16:52:43Z</time>
        <hdop>3.0</hdop>
        <extensions>
          <speed>3.7319297790527344</speed>
        </extensions>
      </trkpt>
      <trkpt lat="46.3116174" lon="7.4318258">
        <ele>1366.0</ele>
        <time>2016-08-23T16:52:49Z</time>
        <hdop>3.0</hdop>
        <extensions>
          <speed>4.116661071777344</speed>
        </extensions>
      </trkpt>
      <trkpt lat="46.3114768" lon="7.4316417">
        <ele>1362.0</ele>
        <time>2016-08-23T16:52:54Z</time>
        <hdop>4.0</hdop>
        <extensions>
          <speed>5.0632004737854</speed>
        </extensions>
      </trkpt>
      <trkpt lat="46.3114439" lon="7.4316222">
        <ele>1353.0</ele>
        <time>2016-08-23T16:53:00Z</time>
        <hdop>4.0</hdop>
        <extensions>
          <speed>2.3248438835144043</speed>
        </extensions>
      </trkpt>
      <trkpt lat="46.3115049" lon="7.4318026">
        <ele>1351.0</ele>
        <time>2016-08-23T16:53:05Z</time>
        <hdop>4.0</hdop>
        <extensions>
          <speed>4.040606498718262</speed>
        </extensions>
      </trkpt>
      <trkpt lat="46.3113758" lon="7.4317249">
        <ele>1348.0</ele>
        <time>2016-08-23T16:53:11Z</time>
        <hdop>4.0</hdop>
        <extensions>
          <speed>4.820010185241699</speed>
        </extensions>
      </trkpt>
      <trkpt lat="46.3112402" lon="7.4313566">
        <ele>1344.0</ele>
        <time>2016-08-23T16:53:16Z</time>
        <hdop>3.0</hdop>
        <extensions>
          <speed>7.2717604637146</speed>
        </extensions>
      </trkpt>
      <trkpt lat="46.3110098" lon="7.4308364">
        <ele>1338.0</ele>
        <time>2016-08-23T16:53:22Z</time>
        <hdop>3.0</hdop>
        <extensions>
          <speed>7.4729509353637695</speed>
        </extensions>
      </trkpt>
      <trkpt lat="46.3107338" lon="7.4304687">
        <ele>1328.0</ele>
        <time>2016-08-23T16:53:27Z</time>
        <hdop>3.0</hdop>
        <extensions>
          <speed>8.827009201049805</speed>
        </extensions>
      </trkpt>
      <trkpt lat="46.3103723" lon="7.4302855">
        <ele>1322.0</ele>
        <time>2016-08-23T16:53:32Z</time>
        <hdop>3.0</hdop>
        <extensions>
          <speed>8.709654808044434</speed>
        </extensions>
      </trkpt>
      <trkpt lat="46.3099428" lon="7.4301994">
        <ele>1317.0</ele>
        <time>2016-08-23T16:53:38Z</time>
        <hdop>3.0</hdop>
        <extensions>
          <speed>7.2532267570495605</speed>
        </extensions>
      </trkpt>
      <trkpt lat="46.3096171" lon="7.4298496">
        <ele>1311.0</ele>
        <time>2016-08-23T16:53:43Z</time>
        <hdop>3.0</hdop>
        <extensions>
          <speed>9.928755760192871</speed>
        </extensions>
      </trkpt>
      <trkpt lat="46.3091865" lon="7.4295868">
        <ele>1305.0</ele>
        <time>2016-08-23T16:53:48Z</time>
        <hdop>3.0</hdop>
        <extensions>
          <speed>9.561443328857422</speed>
        </extensions>
      </trkpt>
      <trkpt lat="46.3089068" lon="7.4290659">
        <ele>1296.0</ele>
        <time>2016-08-23T16:53:54Z</time>
        <hdop>3.0</hdop>
        <extensions>
          <speed>7.38281774520874</speed>
        </extensions>
      </trkpt>
      <trkpt lat="46.3087465" lon="7.4288174">
        <ele>1294.0</ele>
        <time>2016-08-23T16:53:59Z</time>
        <hdop>4.0</hdop>
        <extensions>
          <speed>3.300969362258911</speed>
        </extensions>
      </trkpt>
      <trkpt lat="46.3088185" lon="7.4292483">
        <ele>1294.0</ele>
        <time>2016-08-23T16:54:05Z</time>
        <hdop>3.0</hdop>
        <extensions>
          <speed>7.630321025848389</speed>
        </extensions>
      </trkpt>
      <trkpt lat="46.3089031" lon="7.4298916">
        <ele>1285.0</ele>
        <time>2016-08-23T16:54:11Z</time>
        <hdop>3.0</hdop>
        <extensions>
          <speed>8.057177543640137</speed>
        </extensions>
      </trkpt>
      <trkpt lat="46.3092193" lon="7.4303231">
        <ele>1278.0</ele>
        <time>2016-08-23T16:54:17Z</time>
        <hdop>3.0</hdop>
        <extensions>
          <speed>8.424849510192871</speed>
        </extensions>
      </trkpt>
      <trkpt lat="46.3094903" lon="7.4308896">
        <ele>1273.0</ele>
        <time>2016-08-23T16:54:23Z</time>
        <hdop>3.0</hdop>
        <extensions>
          <speed>9.005026817321777</speed>
        </extensions>
      </trkpt>
      <trkpt lat="46.3099057" lon="7.4312908">
        <ele>1266.0</ele>
        <time>2016-08-23T16:54:29Z</time>
        <hdop>3.0</hdop>
        <extensions>
          <speed>8.974502563476563</speed>
        </extensions>
      </trkpt>
      <trkpt lat="46.3101484" lon="7.4316594">
        <ele>1261.0</ele>
        <time>2016-08-23T16:54:35Z</time>
        <hdop>3.0</hdop>
        <extensions>
          <speed>4.508702754974365</speed>
        </extensions>
      </trkpt>
      <trkpt lat="46.3100319" lon="7.4316562">
        <ele>1257.0</ele>
        <time>2016-08-23T16:54:40Z</time>
        <hdop>3.0</hdop>
        <extensions>
          <speed>4.41162109375</speed>
        </extensions>
      </trkpt>
      <trkpt lat="46.309817" lon="7.4314533">
        <ele>1254.0</ele>
        <time>2016-08-23T16:54:45Z</time>
        <hdop>3.0</hdop>
        <extensions>
          <speed>6.5500688552856445</speed>
        </extensions>
      </trkpt>
      <trkpt lat="46.3093259" lon="7.4314218">
        <ele>1250.0</ele>
        <time>2016-08-23T16:54:51Z</time>
        <hdop>3.0</hdop>
        <extensions>
          <speed>9.12844467163086</speed>
        </extensions>
      </trkpt>
      <trkpt lat="46.308905" lon="7.431151">
        <ele>1244.0</ele>
        <time>2016-08-23T16:54:56Z</time>
        <hdop>3.0</hdop>
        <extensions>
          <speed>10.2098388671875</speed>
        </extensions>
      </trkpt>
      <trkpt lat="46.3083532" lon="7.4308652">
        <ele>1239.0</ele>
        <time>2016-08-23T16:55:02Z</time>
        <hdop>3.0</hdop>
        <extensions>
          <speed>11.533398628234863</speed>
        </extensions>
      </trkpt>
      <trkpt lat="46.3078907" lon="7.4305315">
        <ele>1233.0</ele>
        <time>2016-08-23T16:55:07Z</time>
        <hdop>3.0</hdop>
        <extensions>
          <speed>11.584527969360352</speed>
        </extensions>
      </trkpt>
      <trkpt lat="46.3075861" lon="7.4300673">
        <ele>1226.0</ele>
        <time>2016-08-23T16:55:12Z</time>
        <hdop>3.0</hdop>
        <extensions>
          <speed>9.587075233459473</speed>
        </extensions>
      </trkpt>
      <trkpt lat="46.307239" lon="7.4298984">
        <ele>1222.0</ele>
        <time>2016-08-23T16:55:17Z</time>
        <hdop>3.0</hdop>
        <extensions>
          <speed>5.895302772521973</speed>
        </extensions>
      </trkpt>
      <trkpt lat="46.3071985" lon="7.4296293">
        <ele>1220.0</ele>
        <time>2016-08-23T16:55:22Z</time>
        <hdop>3.0</hdop>
        <extensions>
          <speed>5.152484893798828</speed>
        </extensions>
      </trkpt>
      <trkpt lat="46.3072166" lon="7.4290848">
        <ele>1216.0</ele>
        <time>2016-08-23T16:55:28Z</time>
        <hdop>3.0</hdop>
        <extensions>
          <speed>7.718400001525879</speed>
        </extensions>
      </trkpt>
      <trkpt lat="46.307194" lon="7.4285173">
        <ele>1213.0</ele>
        <time>2016-08-23T16:55:33Z</time>
        <hdop>3.0</hdop>
        <extensions>
          <speed>9.024345397949219</speed>
        </extensions>
      </trkpt>
      <trkpt lat="46.3072884" lon="7.427804">
        <ele>1210.0</ele>
        <time>2016-08-23T16:55:39Z</time>
        <hdop>3.0</hdop>
        <extensions>
          <speed>8.331536293029785</speed>
        </extensions>
      </trkpt>
      <trkpt lat="46.3073727" lon="7.4270586">
        <ele>1208.0</ele>
        <time>2016-08-23T16:55:45Z</time>
        <hdop>3.0</hdop>
        <extensions>
          <speed>9.725945472717285</speed>
        </extensions>
      </trkpt>
      <trkpt lat="46.3074144" lon="7.4265396">
        <ele>1206.0</ele>
        <time>2016-08-23T16:55:50Z</time>
        <hdop>3.0</hdop>
        <extensions>
          <speed>7.535974025726318</speed>
        </extensions>
      </trkpt>
      <trkpt lat="46.3070808" lon="7.4265633">
        <ele>1203.0</ele>
        <time>2016-08-23T16:55:56Z</time>
        <hdop>3.0</hdop>
        <extensions>
          <speed>7.5509538650512695</speed>
        </extensions>
      </trkpt>
      <trkpt lat="46.3067776" lon="7.4267926">
        <ele>1204.0</ele>
        <time>2016-08-23T16:56:01Z</time>
        <hdop>3.0</hdop>
        <extensions>
          <speed>7.21099853515625</speed>
        </extensions>
      </trkpt>
      <trkpt lat="46.3064583" lon="7.4270435">
        <ele>1209.0</ele>
        <time>2016-08-23T16:56:07Z</time>
        <hdop>6.0</hdop>
        <extensions>
          <speed>6.9614081382751465</speed>
        </extensions>
      </trkpt>
      <trkpt lat="46.3062402" lon="7.4273797">
        <ele>1213.0</ele>
        <time>2016-08-23T16:56:13Z</time>
        <hdop>7.0</hdop>
        <extensions>
          <speed>5.199249744415283</speed>
        </extensions>
      </trkpt>
      <trkpt lat="46.3061273" lon="7.4276496">
        <ele>1218.0</ele>
        <time>2016-08-23T16:56:19Z</time>
        <hdop>5.0</hdop>
        <extensions>
          <speed>4.1658735275268555</speed>
        </extensions>
      </trkpt>
      <trkpt lat="46.305953" lon="7.4277322">
        <ele>1219.0</ele>
        <time>2016-08-23T16:56:25Z</time>
        <hdop>3.0</hdop>
        <extensions>
          <speed>3.252599000930786</speed>
        </extensions>
      </trkpt>
      <trkpt lat="46.3057861" lon="7.427708">
        <ele>1216.0</ele>
        <time>2016-08-23T16:56:30Z</time>
        <hdop>3.0</hdop>
        <extensions>
          <speed>3.4800143241882324</speed>
        </extensions>
      </trkpt>
      <trkpt lat="46.3055713" lon="7.4277092">
        <ele>1214.0</ele>
        <time>2016-08-23T16:56:35Z</time>
        <hdop>3.0</hdop>
        <extensions>
          <speed>5.078868389129639</speed>
        </extensions>
      </trkpt>
      <trkpt lat="46.3053262" lon="7.4278001">
        <ele>1214.0</ele>
        <time>2016-08-23T16:56:41Z</time>
        <hdop>3.0</hdop>
        <extensions>
          <speed>5.160154819488525</speed>
        </extensions>
      </trkpt>
      <trkpt lat="46.3051006" lon="7.4278889">
        <ele>1213.0</ele>
        <time>2016-08-23T16:56:46Z</time>
        <hdop>3.0</hdop>
        <extensions>
          <speed>4.7902607917785645</speed>
        </extensions>
      </trkpt>
      <trkpt lat="46.3048448" lon="7.4280013">
        <ele>1213.0</ele>
        <time>2016-08-23T16:56:52Z</time>
        <hdop>3.0</hdop>
        <extensions>
          <speed>4.700170040130615</speed>
        </extensions>
      </trkpt>
      <trkpt lat="46.3045965" lon="7.4279629">
        <ele>1212.0</ele>
        <time>2016-08-23T16:56:57Z</time>
        <hdop>3.0</hdop>
        <extensions>
          <speed>5.489999771118164</speed>
        </extensions>
      </trkpt>
      <trkpt lat="46.3043009" lon="7.4277612">
        <ele>1211.0</ele>
        <time>2016-08-23T16:57:03Z</time>
        <hdop>3.0</hdop>
        <extensions>
          <speed>6.522483825683594</speed>
        </extensions>
      </trkpt>
      <trkpt lat="46.3040052" lon="7.42741">
        <ele>1209.0</ele>
        <time>2016-08-23T16:57:09Z</time>
        <hdop>3.0</hdop>
        <extensions>
          <speed>7.78311014175415</speed>
        </extensions>
      </trkpt>
      <trkpt lat="46.3037197" lon="7.426972">
        <ele>1209.0</ele>
        <time>2016-08-23T16:57:15Z</time>
        <hdop>3.0</hdop>
        <extensions>
          <speed>7.540059566497803</speed>
        </extensions>
      </trkpt>
      <trkpt lat="46.3035187" lon="7.4266168">
        <ele>1210.0</ele>
        <time>2016-08-23T16:57:20Z</time>
        <hdop>3.0</hdop>
        <extensions>
          <speed>6.8223748207092285</speed>
        </extensions>
      </trkpt>
      <trkpt lat="46.3033116" lon="7.426175">
        <ele>1211.0</ele>
        <time>2016-08-23T16:57:26Z</time>
        <hdop>3.0</hdop>
        <extensions>
          <speed>6.705042362213135</speed>
        </extensions>
      </trkpt>
      <trkpt lat="46.3031107" lon="7.4257528">
        <ele>1210.0</ele>
        <time>2016-08-23T16:57:32Z</time>
        <hdop>3.0</hdop>
        <extensions>
          <speed>6.710007667541504</speed>
        </extensions>
      </trkpt>
      <trkpt lat="46.3028904" lon="7.4254787">
        <ele>1210.0</ele>
        <time>2016-08-23T16:57:37Z</time>
        <hdop>3.0</hdop>
        <extensions>
          <speed>6.460773944854736</speed>
        </extensions>
      </trkpt>
      <trkpt lat="46.30258" lon="7.4252534">
        <ele>1210.0</ele>
        <time>2016-08-23T16:57:43Z</time>
        <hdop>3.0</hdop>
        <extensions>
          <speed>6.230128288269043</speed>
        </extensions>
      </trkpt>
      <trkpt lat="46.3023582" lon="7.4250044">
        <ele>1210.0</ele>
        <time>2016-08-23T16:57:48Z</time>
        <hdop>3.0</hdop>
        <extensions>
          <speed>6.0600080490112305</speed>
        </extensions>
      </trkpt>
      <trkpt lat="46.3022145" lon="7.4245874">
        <ele>1209.0</ele>
        <time>2016-08-23T16:57:54Z</time>
        <hdop>3.0</hdop>
        <extensions>
          <speed>5.920000076293945</speed>
        </extensions>
      </trkpt>
      <trkpt lat="46.3020934" lon="7.4242322">
        <ele>1209.0</ele>
        <time>2016-08-23T16:57:59Z</time>
        <hdop>3.0</hdop>
        <extensions>
          <speed>6.050074577331543</speed>
        </extensions>
      </trkpt>
      <trkpt lat="46.3018427" lon="7.4239166">
        <ele>1209.0</ele>
        <time>2016-08-23T16:58:05Z</time>
        <hdop>3.0</hdop>
        <extensions>
          <speed>5.79104471206665</speed>
        </extensions>
      </trkpt>
      <trkpt lat="46.3016971" lon="7.4238669">
        <ele>1208.0</ele>
        <time>2016-08-23T16:58:11Z</time>
        <hdop>3.0</hdop>
        <extensions>
          <speed>3.2718496322631836</speed>
        </extensions>
      </trkpt>
      <trkpt lat="46.3018814" lon="7.4241386">
        <ele>1205.0</ele>
        <time>2016-08-23T16:58:17Z</time>
        <hdop>3.0</hdop>
        <extensions>
          <speed>5.730314254760742</speed>
        </extensions>
      </trkpt>
      <trkpt lat="46.3020788" lon="7.4245628">
        <ele>1202.0</ele>
        <time>2016-08-23T16:58:23Z</time>
        <hdop>3.0</hdop>
        <extensions>
          <speed>7.160006999969482</speed>
        </extensions>
      </trkpt>
      <trkpt lat="46.3021615" lon="7.4251126">
        <ele>1200.0</ele>
        <time>2016-08-23T16:58:29Z</time>
        <hdop>3.0</hdop>
        <extensions>
          <speed>6.334611415863037</speed>
        </extensions>
      </trkpt>
      <trkpt lat="46.3023938" lon="7.4255866">
        <ele>1196.0</ele>
        <time>2016-08-23T16:58:35Z</time>
        <hdop>3.0</hdop>
        <extensions>
          <speed>8.0024995803833</speed>
        </extensions>
      </trkpt>
      <trkpt lat="46.3026011" lon="7.4259833">
        <ele>1193.0</ele>
        <time>2016-08-23T16:58:40Z</time>
        <hdop>3.0</hdop>
        <extensions>
          <speed>7.710233688354492</speed>
        </extensions>
      </trkpt>
      <trkpt lat="46.3027615" lon="7.426512">
        <ele>1190.0</ele>
        <time>2016-08-23T16:58:46Z</time>
        <hdop>3.0</hdop>
        <extensions>
          <speed>7.035055160522461</speed>
        </extensions>
      </trkpt>
      <trkpt lat="46.3028269" lon="7.4270716">
        <ele>1187.0</ele>
        <time>2016-08-23T16:58:52Z</time>
        <hdop>3.0</hdop>
        <extensions>
          <speed>7.750645160675049</speed>
        </extensions>
      </trkpt>
      <trkpt lat="46.3029605" lon="7.4275377">
        <ele>1181.0</ele>
        <time>2016-08-23T16:58:57Z</time>
        <hdop>3.0</hdop>
        <extensions>
          <speed>5.680792331695557</speed>
        </extensions>
      </trkpt>
      <trkpt lat="46.30299" lon="7.4276704">
        <ele>1178.0</ele>
        <time>2016-08-23T16:59:03Z</time>
        <hdop>3.0</hdop>
      </trkpt>
      <trkpt lat="46.3029861" lon="7.4276718">
        <ele>1177.0</ele>
        <time>2016-08-23T16:59:08Z</time>
        <hdop>3.0</hdop>
        <extensions>
          <speed>0.07999999821186066</speed>
        </extensions>
      </trkpt>
      <trkpt lat="46.3029934" lon="7.4276838">
        <ele>1177.0</ele>
        <time>2016-08-23T16:59:14Z</time>
        <hdop>3.0</hdop>
      </trkpt>
      <trkpt lat="46.3029998" lon="7.4276896">
        <ele>1177.0</ele>
        <time>2016-08-23T16:59:20Z</time>
        <hdop>3.0</hdop>
      </trkpt>
      <trkpt lat="46.3029997" lon="7.4276892">
        <ele>1177.0</ele>
        <time>2016-08-23T16:59:25Z</time>
        <hdop>3.0</hdop>
      </trkpt>
      <trkpt lat="46.3029996" lon="7.4276893">
        <ele>1177.0</ele>
        <time>2016-08-23T16:59:31Z</time>
        <hdop>3.0</hdop>
      </trkpt>
      <trkpt lat="46.3029997" lon="7.4276891">
        <ele>1177.0</ele>
        <time>2016-08-23T16:59:37Z</time>
        <hdop>3.0</hdop>
      </trkpt>
      <trkpt lat="46.3029997" lon="7.4276889">
        <ele>1177.0</ele>
        <time>2016-08-23T16:59:43Z</time>
        <hdop>3.0</hdop>
      </trkpt>
      <trkpt lat="46.3029996" lon="7.4276888">
        <ele>1177.0</ele>
        <time>2016-08-23T16:59:49Z</time>
        <hdop>3.0</hdop>
      </trkpt>
      <trkpt lat="46.3029998" lon="7.4276886">
        <ele>1177.0</ele>
        <time>2016-08-23T16:59:55Z</time>
        <hdop>3.0</hdop>
      </trkpt>
      <trkpt lat="46.3029998" lon="7.4276884">
        <ele>1177.0</ele>
        <time>2016-08-23T17:00:01Z</time>
        <hdop>3.0</hdop>
      </trkpt>
      <trkpt lat="46.3029998" lon="7.4276885">
        <ele>1177.0</ele>
        <time>2016-08-23T17:00:07Z</time>
        <hdop>3.0</hdop>
      </trkpt>
      <trkpt lat="46.3029997" lon="7.4276886">
        <ele>1177.0</ele>
        <time>2016-08-23T17:00:12Z</time>
        <hdop>3.0</hdop>
      </trkpt>
      <trkpt lat="46.3029997" lon="7.4276884">
        <ele>1177.0</ele>
        <time>2016-08-23T17:00:18Z</time>
        <hdop>3.0</hdop>
      </trkpt>
      <trkpt lat="46.3029998" lon="7.4276883">
        <ele>1177.0</ele>
        <time>2016-08-23T17:00:23Z</time>
        <hdop>3.0</hdop>
      </trkpt>
      <trkpt lat="46.3029999" lon="7.4276884">
        <ele>1177.0</ele>
        <time>2016-08-23T17:00:28Z</time>
        <hdop>3.0</hdop>
      </trkpt>
      <trkpt lat="46.3029999" lon="7.4276882">
        <ele>1177.0</ele>
        <time>2016-08-23T17:00:33Z</time>
        <hdop>3.0</hdop>
      </trkpt>
      <trkpt lat="46.303" lon="7.427688">
        <ele>1177.0</ele>
        <time>2016-08-23T17:00:39Z</time>
        <hdop>3.0</hdop>
      </trkpt>
      <trkpt lat="46.3029965" lon="7.4276877">
        <ele>1177.0</ele>
        <time>2016-08-23T17:00:45Z</time>
        <hdop>3.0</hdop>
      </trkpt>
      <trkpt lat="46.3029962" lon="7.4276712">
        <ele>1176.0</ele>
        <time>2016-08-23T17:00:51Z</time>
        <hdop>3.0</hdop>
      </trkpt>
      <trkpt lat="46.3030082" lon="7.4276927">
        <ele>1177.0</ele>
        <time>2016-08-23T17:00:56Z</time>
        <hdop>3.0</hdop>
        <extensions>
          <speed>1.440555453300476</speed>
        </extensions>
      </trkpt>
      <trkpt lat="46.3031117" lon="7.4278691">
        <ele>1178.0</ele>
        <time>2016-08-23T17:01:02Z</time>
        <hdop>3.0</hdop>
        <extensions>
          <speed>4.11205530166626</speed>
        </extensions>
      </trkpt>
      <trkpt lat="46.3033211" lon="7.4282036">
        <ele>1175.0</ele>
        <time>2016-08-23T17:01:08Z</time>
        <hdop>3.0</hdop>
        <extensions>
          <speed>6.341332912445068</speed>
        </extensions>
      </trkpt>
      <trkpt lat="46.3035103" lon="7.4286914">
        <ele>1172.0</ele>
        <time>2016-08-23T17:01:14Z</time>
        <hdop>3.0</hdop>
        <extensions>
          <speed>7.076793193817139</speed>
        </extensions>
      </trkpt>
      <trkpt lat="46.3037896" lon="7.429125">
        <ele>1169.0</ele>
        <time>2016-08-23T17:01:20Z</time>
        <hdop>3.0</hdop>
        <extensions>
          <speed>8.075573921203613</speed>
        </extensions>
      </trkpt>
      <trkpt lat="46.3040377" lon="7.4294703">
        <ele>1167.0</ele>
        <time>2016-08-23T17:01:25Z</time>
        <hdop>3.0</hdop>
        <extensions>
          <speed>6.822932243347168</speed>
        </extensions>
      </trkpt>
      <trkpt lat="46.3040421" lon="7.429677">
        <ele>1167.0</ele>
        <time>2016-08-23T17:01:31Z</time>
        <hdop>3.0</hdop>
        <extensions>
          <speed>2.571303129196167</speed>
        </extensions>
      </trkpt>
      <trkpt lat="46.3038601" lon="7.4295758">
        <ele>1165.0</ele>
        <time>2016-08-23T17:01:36Z</time>
        <hdop>3.0</hdop>
        <extensions>
          <speed>5.143150806427002</speed>
        </extensions>
      </trkpt>
      <trkpt lat="46.3035536" lon="7.4293635">
        <ele>1163.0</ele>
        <time>2016-08-23T17:01:42Z</time>
        <hdop>3.0</hdop>
        <extensions>
          <speed>7.290027618408203</speed>
        </extensions>
      </trkpt>
      <trkpt lat="46.303284" lon="7.4291736">
        <ele>1162.0</ele>
        <time>2016-08-23T17:01:47Z</time>
        <hdop>4.0</hdop>
        <extensions>
          <speed>5.130350589752197</speed>
        </extensions>
      </trkpt>
      <trkpt lat="46.3028383" lon="7.4288826">
        <ele>1158.0</ele>
        <time>2016-08-23T17:01:53Z</time>
        <hdop>3.0</hdop>
        <extensions>
          <speed>8.246604919433594</speed>
        </extensions>
      </trkpt>
      <trkpt lat="46.3023894" lon="7.4284787">
        <ele>1153.0</ele>
        <time>2016-08-23T17:01:59Z</time>
        <hdop>3.0</hdop>
        <extensions>
          <speed>9.08431625366211</speed>
        </extensions>
      </trkpt>
      <trkpt lat="46.3020013" lon="7.428267">
        <ele>1151.0</ele>
        <time>2016-08-23T17:02:04Z</time>
        <hdop>3.0</hdop>
        <extensions>
          <speed>8.540287017822266</speed>
        </extensions>
      </trkpt>
      <trkpt lat="46.3017665" lon="7.4282851">
        <ele>1147.0</ele>
        <time>2016-08-23T17:02:10Z</time>
        <hdop>3.0</hdop>
        <extensions>
          <speed>4.090440273284912</speed>
        </extensions>
      </trkpt>
      <trkpt lat="46.3019914" lon="7.4284318">
        <ele>1144.0</ele>
        <time>2016-08-23T17:02:15Z</time>
        <hdop>3.0</hdop>
        <extensions>
          <speed>6.179999828338623</speed>
        </extensions>
      </trkpt>
      <trkpt lat="46.3021808" lon="7.4288666">
        <ele>1144.0</ele>
        <time>2016-08-23T17:02:21Z</time>
        <hdop>3.0</hdop>
        <extensions>
          <speed>7.030178070068359</speed>
        </extensions>
      </trkpt>
      <trkpt lat="46.3023284" lon="7.429246">
        <ele>1142.0</ele>
        <time>2016-08-23T17:02:26Z</time>
        <hdop>3.0</hdop>
        <extensions>
          <speed>7.080112934112549</speed>
        </extensions>
      </trkpt>
      <trkpt lat="46.3025707" lon="7.4295924">
        <ele>1139.0</ele>
        <time>2016-08-23T17:02:31Z</time>
        <hdop>3.0</hdop>
        <extensions>
          <speed>8.04850959777832</speed>
        </extensions>
      </trkpt>
      <trkpt lat="46.302892" lon="7.4301079">
        <ele>1134.0</ele>
        <time>2016-08-23T17:02:37Z</time>
        <hdop>3.0</hdop>
        <extensions>
          <speed>9.207040786743164</speed>
        </extensions>
      </trkpt>
      <trkpt lat="46.3031396" lon="7.4304631">
        <ele>1132.0</ele>
        <time>2016-08-23T17:02:42Z</time>
        <hdop>3.0</hdop>
        <extensions>
          <speed>5.775413513183594</speed>
        </extensions>
      </trkpt>
      <trkpt lat="46.3030493" lon="7.4306201">
        <ele>1129.0</ele>
        <time>2016-08-23T17:02:48Z</time>
        <hdop>3.0</hdop>
        <extensions>
          <speed>4.903977870941162</speed>
        </extensions>
      </trkpt>
      <trkpt lat="46.3027006" lon="7.430533">
        <ele>1124.0</ele>
        <time>2016-08-23T17:02:54Z</time>
        <hdop>3.0</hdop>
        <extensions>
          <speed>7.025987148284912</speed>
        </extensions>
      </trkpt>
      <trkpt lat="46.3022886" lon="7.4304439">
        <ele>1122.0</ele>
        <time>2016-08-23T17:03:00Z</time>
        <hdop>3.0</hdop>
        <extensions>
          <speed>8.04420280456543</speed>
        </extensions>
      </trkpt>
      <trkpt lat="46.3019059" lon="7.4303757">
        <ele>1119.0</ele>
        <time>2016-08-23T17:03:05Z</time>
        <hdop>3.0</hdop>
        <extensions>
          <speed>7.9046125411987305</speed>
        </extensions>
      </trkpt>
      <trkpt lat="46.3016123" lon="7.4301574">
        <ele>1116.0</ele>
        <time>2016-08-23T17:03:11Z</time>
        <hdop>3.0</hdop>
        <extensions>
          <speed>6.061303615570068</speed>
        </extensions>
      </trkpt>
      <trkpt lat="46.3013281" lon="7.4299185">
        <ele>1114.0</ele>
        <time>2016-08-23T17:03:16Z</time>
        <hdop>3.0</hdop>
        <extensions>
          <speed>8.089406967163086</speed>
        </extensions>
      </trkpt>
      <trkpt lat="46.3010253" lon="7.4296406">
        <ele>1113.0</ele>
        <time>2016-08-23T17:03:21Z</time>
        <hdop>3.0</hdop>
        <extensions>
          <speed>7.611681938171387</speed>
        </extensions>
      </trkpt>
      <trkpt lat="46.300803" lon="7.4291187">
        <ele>1112.0</ele>
        <time>2016-08-23T17:03:27Z</time>
        <hdop>3.0</hdop>
        <extensions>
          <speed>5.980000019073486</speed>
        </extensions>
      </trkpt>
      <trkpt lat="46.3007235" lon="7.4290934">
        <ele>1112.0</ele>
        <time>2016-08-23T17:03:33Z</time>
        <hdop>3.0</hdop>
        <extensions>
          <speed>1.4632155895233154</speed>
        </extensions>
      </trkpt>
      <trkpt lat="46.3007825" lon="7.4291151">
        <ele>1116.0</ele>
        <time>2016-08-23T17:03:38Z</time>
        <hdop>3.0</hdop>
        <extensions>
          <speed>1.687157392501831</speed>
        </extensions>
      </trkpt>
      <trkpt lat="46.300827" lon="7.4292428">
        <ele>1116.0</ele>
        <time>2016-08-23T17:03:44Z</time>
        <hdop>3.0</hdop>
        <extensions>
          <speed>1.379311442375183</speed>
        </extensions>
      </trkpt>
      <trkpt lat="46.3008146" lon="7.4292494">
        <ele>1117.0</ele>
        <time>2016-08-23T17:03:49Z</time>
        <hdop>3.0</hdop>
      </trkpt>
      <trkpt lat="46.3008299" lon="7.4292703">
        <ele>1114.0</ele>
        <time>2016-08-23T17:03:55Z</time>
        <hdop>3.0</hdop>
      </trkpt>
      <trkpt lat="46.3008425" lon="7.4292743">
        <ele>1114.0</ele>
        <time>2016-08-23T17:04:01Z</time>
        <hdop>3.0</hdop>
      </trkpt>
      <trkpt lat="46.3008382" lon="7.4292939">
        <ele>1114.0</ele>
        <time>2016-08-23T17:04:06Z</time>
        <hdop>3.0</hdop>
      </trkpt>
      <trkpt lat="46.3008391" lon="7.4292946">
        <ele>1114.0</ele>
        <time>2016-08-23T17:04:12Z</time>
        <hdop>3.0</hdop>
      </trkpt>
      <trkpt lat="46.3008393" lon="7.4292943">
        <ele>1114.0</ele>
        <time>2016-08-23T17:04:17Z</time>
        <hdop>3.0</hdop>
      </trkpt>
      <trkpt lat="46.3008394" lon="7.4292942">
        <ele>1114.0</ele>
        <time>2016-08-23T17:04:23Z</time>
        <hdop>3.0</hdop>
      </trkpt>
      <trkpt lat="46.3008427" lon="7.429294">
        <ele>1114.0</ele>
        <time>2016-08-23T17:04:28Z</time>
        <hdop>3.0</hdop>
      </trkpt>
      <trkpt lat="46.300842" lon="7.4293058">
        <ele>1116.0</ele>
        <time>2016-08-23T17:04:33Z</time>
        <hdop>3.0</hdop>
      </trkpt>
      <trkpt lat="46.3008422" lon="7.4293049">
        <ele>1116.0</ele>
        <time>2016-08-23T17:04:39Z</time>
        <hdop>3.0</hdop>
      </trkpt>
      <trkpt lat="46.3008422" lon="7.4293048">
        <ele>1116.0</ele>
        <time>2016-08-23T17:04:44Z</time>
        <hdop>3.0</hdop>
      </trkpt>
      <trkpt lat="46.3008421" lon="7.4293048">
        <ele>1116.0</ele>
        <time>2016-08-23T17:04:49Z</time>
        <hdop>3.0</hdop>
      </trkpt>
      <trkpt lat="46.300842" lon="7.4293048">
        <ele>1116.0</ele>
        <time>2016-08-23T17:04:55Z</time>
        <hdop>3.0</hdop>
      </trkpt>
      <trkpt lat="46.3008418" lon="7.4293048">
        <ele>1116.0</ele>
        <time>2016-08-23T17:05:01Z</time>
        <hdop>3.0</hdop>
      </trkpt>
      <trkpt lat="46.3008381" lon="7.4293013">
        <ele>1117.0</ele>
        <time>2016-08-23T17:05:07Z</time>
        <hdop>3.0</hdop>
      </trkpt>
      <trkpt lat="46.3008408" lon="7.4292974">
        <ele>1117.0</ele>
        <time>2016-08-23T17:05:13Z</time>
        <hdop>3.0</hdop>
      </trkpt>
      <trkpt lat="46.3008434" lon="7.4292926">
        <ele>1116.0</ele>
        <time>2016-08-23T17:05:18Z</time>
        <hdop>3.0</hdop>
        <extensions>
          <speed>0.4501110911369324</speed>
        </extensions>
      </trkpt>
      <trkpt lat="46.3008764" lon="7.4293458">
        <ele>1116.0</ele>
        <time>2016-08-23T17:05:24Z</time>
        <hdop>3.0</hdop>
        <extensions>
          <speed>1.0399999618530273</speed>
        </extensions>
      </trkpt>
      <trkpt lat="46.3009242" lon="7.4294534">
        <ele>1115.0</ele>
        <time>2016-08-23T17:05:30Z</time>
        <hdop>3.0</hdop>
        <extensions>
          <speed>2.330021381378174</speed>
        </extensions>
      </trkpt>
      <trkpt lat="46.3009523" lon="7.4295085">
        <ele>1116.0</ele>
        <time>2016-08-23T17:05:35Z</time>
        <hdop>3.0</hdop>
        <extensions>
          <speed>1.310152530670166</speed>
        </extensions>
      </trkpt>
      <trkpt lat="46.3010508" lon="7.4296776">
        <ele>1117.0</ele>
        <time>2016-08-23T17:05:41Z</time>
        <hdop>3.0</hdop>
        <extensions>
          <speed>3.076507806777954</speed>
        </extensions>
      </trkpt>
      <trkpt lat="46.3011712" lon="7.4297954">
        <ele>1118.0</ele>
        <time>2016-08-23T17:05:46Z</time>
        <hdop>3.0</hdop>
        <extensions>
          <speed>3.3426036834716797</speed>
        </extensions>
      </trkpt>
      <trkpt lat="46.3013231" lon="7.429927">
        <ele>1120.0</ele>
        <time>2016-08-23T17:05:52Z</time>
        <hdop>3.0</hdop>
        <extensions>
          <speed>2.9888627529144287</speed>
        </extensions>
      </trkpt>
      <trkpt lat="46.3014539" lon="7.4300308">
        <ele>1121.0</ele>
        <time>2016-08-23T17:05:58Z</time>
        <hdop>3.0</hdop>
        <extensions>
          <speed>2.580484390258789</speed>
        </extensions>
      </trkpt>
      <trkpt lat="46.3015884" lon="7.4301376">
        <ele>1122.0</ele>
        <time>2016-08-23T17:06:04Z</time>
        <hdop>3.0</hdop>
        <extensions>
          <speed>2.597710371017456</speed>
        </extensions>
      </trkpt>
      <trkpt lat="46.3016865" lon="7.4302143">
        <ele>1122.0</ele>
        <time>2016-08-23T17:06:09Z</time>
        <hdop>3.0</hdop>
        <extensions>
          <speed>2.0946836471557617</speed>
        </extensions>
      </trkpt>
      <trkpt lat="46.301791" lon="7.4303127">
        <ele>1124.0</ele>
        <time>2016-08-23T17:06:15Z</time>
        <hdop>3.0</hdop>
        <extensions>
          <speed>1.8844892978668213</speed>
        </extensions>
      </trkpt>
      <trkpt lat="46.3017744" lon="7.4303884">
        <ele>1123.0</ele>
        <time>2016-08-23T17:06:20Z</time>
        <hdop>3.0</hdop>
        <extensions>
          <speed>2.1208488941192627</speed>
        </extensions>
      </trkpt>
      <trkpt lat="46.301825" lon="7.4306317">
        <ele>1121.0</ele>
        <time>2016-08-23T17:06:26Z</time>
        <hdop>3.0</hdop>
        <extensions>
          <speed>3.43402099609375</speed>
        </extensions>
      </trkpt>
      <trkpt lat="46.3018809" lon="7.4308088">
        <ele>1117.0</ele>
        <time>2016-08-23T17:06:32Z</time>
        <hdop>3.0</hdop>
        <extensions>
          <speed>1.182581901550293</speed>
        </extensions>
      </trkpt>
      <trkpt lat="46.3017338" lon="7.4308642">
        <ele>1115.0</ele>
        <time>2016-08-23T17:06:38Z</time>
        <hdop>3.0</hdop>
        <extensions>
          <speed>2.86342453956604</speed>
        </extensions>
      </trkpt>
      <trkpt lat="46.3015618" lon="7.4307913">
        <ele>1114.0</ele>
        <time>2016-08-23T17:06:43Z</time>
        <hdop>3.0</hdop>
        <extensions>
          <speed>3.128322124481201</speed>
        </extensions>
      </trkpt>
      <trkpt lat="46.3013294" lon="7.4307906">
        <ele>1115.0</ele>
        <time>2016-08-23T17:06:49Z</time>
        <hdop>3.0</hdop>
        <extensions>
          <speed>2.347977638244629</speed>
        </extensions>
      </trkpt>
      <trkpt lat="46.3011526" lon="7.4306423">
        <ele>1112.0</ele>
        <time>2016-08-23T17:06:54Z</time>
        <hdop>3.0</hdop>
        <extensions>
          <speed>4.681644916534424</speed>
        </extensions>
      </trkpt>
      <trkpt lat="46.3009238" lon="7.4304253">
        <ele>1109.0</ele>
        <time>2016-08-23T17:07:00Z</time>
        <hdop>3.0</hdop>
        <extensions>
          <speed>3.7508533000946045</speed>
        </extensions>
      </trkpt>
      <trkpt lat="46.3006947" lon="7.4303299">
        <ele>1102.0</ele>
        <time>2016-08-23T17:07:06Z</time>
        <hdop>3.0</hdop>
        <extensions>
          <speed>4.521172046661377</speed>
        </extensions>
      </trkpt>
      <trkpt lat="46.3004413" lon="7.4301336">
        <ele>1099.0</ele>
        <time>2016-08-23T17:07:12Z</time>
        <hdop>3.0</hdop>
        <extensions>
          <speed>5.453668117523193</speed>
        </extensions>
      </trkpt>
      <trkpt lat="46.3001279" lon="7.4300997">
        <ele>1094.0</ele>
        <time>2016-08-23T17:07:18Z</time>
        <hdop>3.0</hdop>
        <extensions>
          <speed>6.0132598876953125</speed>
        </extensions>
      </trkpt>
      <trkpt lat="46.2999074" lon="7.4300992">
        <ele>1090.0</ele>
        <time>2016-08-23T17:07:23Z</time>
        <hdop>3.0</hdop>
        <extensions>
          <speed>4.937053680419922</speed>
        </extensions>
      </trkpt>
      <trkpt lat="46.2997345" lon="7.4299388">
        <ele>1090.0</ele>
        <time>2016-08-23T17:07:28Z</time>
        <hdop>3.0</hdop>
        <extensions>
          <speed>3.423288106918335</speed>
        </extensions>
      </trkpt>
      <trkpt lat="46.2997367" lon="7.4296288">
        <ele>1085.0</ele>
        <time>2016-08-23T17:07:34Z</time>
        <hdop>3.0</hdop>
        <extensions>
          <speed>5.516493320465088</speed>
        </extensions>
      </trkpt>
      <trkpt lat="46.2997586" lon="7.4291836">
        <ele>1076.0</ele>
        <time>2016-08-23T17:07:40Z</time>
        <hdop>3.0</hdop>
        <extensions>
          <speed>4.599489212036133</speed>
        </extensions>
      </trkpt>
      <trkpt lat="46.2995828" lon="7.4289188">
        <ele>1078.0</ele>
        <time>2016-08-23T17:07:46Z</time>
        <hdop>3.0</hdop>
        <extensions>
          <speed>4.928539276123047</speed>
        </extensions>
      </trkpt>
      <trkpt lat="46.2994753" lon="7.4286513">
        <ele>1077.0</ele>
        <time>2016-08-23T17:07:52Z</time>
        <hdop>3.0</hdop>
        <extensions>
          <speed>3.020148992538452</speed>
        </extensions>
      </trkpt>
      <trkpt lat="46.2993803" lon="7.4284817">
        <ele>1078.0</ele>
        <time>2016-08-23T17:07:57Z</time>
        <hdop>3.0</hdop>
        <extensions>
          <speed>2.6534504890441895</speed>
        </extensions>
      </trkpt>
      <trkpt lat="46.2991816" lon="7.428385">
        <ele>1078.0</ele>
        <time>2016-08-23T17:08:03Z</time>
        <hdop>3.0</hdop>
        <extensions>
          <speed>4.315611362457275</speed>
        </extensions>
      </trkpt>
      <trkpt lat="46.2989544" lon="7.4282658">
        <ele>1072.0</ele>
        <time>2016-08-23T17:08:09Z</time>
        <hdop>3.0</hdop>
        <extensions>
          <speed>4.673670768737793</speed>
        </extensions>
      </trkpt>
      <trkpt lat="46.2986855" lon="7.4279708">
        <ele>1065.0</ele>
        <time>2016-08-23T17:08:15Z</time>
        <hdop>3.0</hdop>
        <extensions>
          <speed>4.570525169372559</speed>
        </extensions>
      </trkpt>
      <trkpt lat="46.2986166" lon="7.4277702">
        <ele>1063.0</ele>
        <time>2016-08-23T17:08:20Z</time>
        <hdop>3.0</hdop>
        <extensions>
          <speed>3.0831475257873535</speed>
        </extensions>
      </trkpt>
      <trkpt lat="46.2985753" lon="7.4277102">
        <ele>1063.0</ele>
        <time>2016-08-23T17:08:26Z</time>
        <hdop>3.0</hdop>
        <extensions>
          <speed>0.4753945767879486</speed>
        </extensions>
      </trkpt>
      <trkpt lat="46.2985825" lon="7.4277254">
        <ele>1063.0</ele>
        <time>2016-08-23T17:08:32Z</time>
        <hdop>3.0</hdop>
      </trkpt>
      <trkpt lat="46.2985662" lon="7.4277274">
        <ele>1063.0</ele>
        <time>2016-08-23T17:08:37Z</time>
        <hdop>3.0</hdop>
        <extensions>
          <speed>0.42047592997550964</speed>
        </extensions>
      </trkpt>
      <trkpt lat="46.2985336" lon="7.4277443">
        <ele>1065.0</ele>
        <time>2016-08-23T17:08:43Z</time>
        <hdop>3.0</hdop>
        <extensions>
          <speed>0.7102816104888916</speed>
        </extensions>
      </trkpt>
      <trkpt lat="46.2985411" lon="7.4277658">
        <ele>1069.0</ele>
        <time>2016-08-23T17:08:48Z</time>
        <hdop>3.0</hdop>
        <extensions>
          <speed>0.6888396143913269</speed>
        </extensions>
      </trkpt>
      <trkpt lat="46.298532" lon="7.4277908">
        <ele>1072.0</ele>
        <time>2016-08-23T17:08:54Z</time>
        <hdop>3.0</hdop>
        <extensions>
          <speed>0.7720103859901428</speed>
        </extensions>
      </trkpt>
      <trkpt lat="46.2984817" lon="7.4278388">
        <ele>1072.0</ele>
        <time>2016-08-23T17:09:00Z</time>
        <hdop>3.0</hdop>
        <extensions>
          <speed>0.7186793684959412</speed>
        </extensions>
      </trkpt>
      <trkpt lat="46.2984681" lon="7.4278434">
        <ele>1072.0</ele>
        <time>2016-08-23T17:09:05Z</time>
        <hdop>3.0</hdop>
        <extensions>
          <speed>0.5798275470733643</speed>
        </extensions>
      </trkpt>
      <trkpt lat="46.2984784" lon="7.4279253">
        <ele>1076.0</ele>
        <time>2016-08-23T17:09:11Z</time>
        <hdop>3.0</hdop>
        <extensions>
          <speed>1.2264175415039063</speed>
        </extensions>
      </trkpt>
      <trkpt lat="46.2985057" lon="7.4280012">
        <ele>1081.0</ele>
        <time>2016-08-23T17:09:16Z</time>
        <hdop>3.0</hdop>
        <extensions>
          <speed>1.5708914995193481</speed>
        </extensions>
      </trkpt>
      <trkpt lat="46.2984952" lon="7.4281636">
        <ele>1083.0</ele>
        <time>2016-08-23T17:09:22Z</time>
        <hdop>3.0</hdop>
        <extensions>
          <speed>2.0892581939697266</speed>
        </extensions>
      </trkpt>
      <trkpt lat="46.2984861" lon="7.4282941">
        <ele>1084.0</ele>
        <time>2016-08-23T17:09:27Z</time>
        <hdop>3.0</hdop>
        <extensions>
          <speed>1.6560494899749756</speed>
        </extensions>
      </trkpt>
      <trkpt lat="46.2984605" lon="7.4284085">
        <ele>1084.0</ele>
        <time>2016-08-23T17:09:33Z</time>
        <hdop>3.0</hdop>
        <extensions>
          <speed>1.3708391189575195</speed>
        </extensions>
      </trkpt>
      <trkpt lat="46.2984665" lon="7.428558">
        <ele>1086.0</ele>
        <time>2016-08-23T17:09:39Z</time>
        <hdop>3.0</hdop>
        <extensions>
          <speed>1.5016324520111084</speed>
        </extensions>
      </trkpt>
      <trkpt lat="46.2984844" lon="7.4286769">
        <ele>1088.0</ele>
        <time>2016-08-23T17:09:45Z</time>
        <hdop>3.0</hdop>
        <extensions>
          <speed>1.6113659143447876</speed>
        </extensions>
      </trkpt>
      <trkpt lat="46.2984477" lon="7.4287794">
        <ele>1089.0</ele>
        <time>2016-08-23T17:09:51Z</time>
        <hdop>3.0</hdop>
        <extensions>
          <speed>0.9822932481765747</speed>
        </extensions>
      </trkpt>
      <trkpt lat="46.2983603" lon="7.4288121">
        <ele>1082.0</ele>
        <time>2016-08-23T17:09:57Z</time>
        <hdop>3.0</hdop>
        <extensions>
          <speed>0.9390420913696289</speed>
        </extensions>
      </trkpt>
      <trkpt lat="46.298318" lon="7.4287992">
        <ele>1085.0</ele>
        <time>2016-08-23T17:10:03Z</time>
        <hdop>3.0</hdop>
        <extensions>
          <speed>1.337348222732544</speed>
        </extensions>
      </trkpt>
      <trkpt lat="46.2982646" lon="7.4287669">
        <ele>1087.0</ele>
        <time>2016-08-23T17:10:09Z</time>
        <hdop>3.0</hdop>
        <extensions>
          <speed>0.9420191049575806</speed>
        </extensions>
      </trkpt>
      <trkpt lat="46.2981455" lon="7.4287171">
        <ele>1088.0</ele>
        <time>2016-08-23T17:10:15Z</time>
        <hdop>3.0</hdop>
        <extensions>
          <speed>1.7509427070617676</speed>
        </extensions>
      </trkpt>
      <trkpt lat="46.2980156" lon="7.4286744">
        <ele>1085.0</ele>
        <time>2016-08-23T17:10:21Z</time>
        <hdop>3.0</hdop>
        <extensions>
          <speed>1.8000277280807495</speed>
        </extensions>
      </trkpt>
      <trkpt lat="46.2978735" lon="7.4286528">
        <ele>1088.0</ele>
        <time>2016-08-23T17:10:27Z</time>
        <hdop>3.0</hdop>
        <extensions>
          <speed>2.1077001094818115</speed>
        </extensions>
      </trkpt>
      <trkpt lat="46.297793" lon="7.4286147">
        <ele>1090.0</ele>
        <time>2016-08-23T17:10:32Z</time>
        <hdop>3.0</hdop>
        <extensions>
          <speed>1.1442464590072632</speed>
        </extensions>
      </trkpt>
      <trkpt lat="46.2976972" lon="7.4285596">
        <ele>1090.0</ele>
        <time>2016-08-23T17:10:38Z</time>
        <hdop>3.0</hdop>
        <extensions>
          <speed>1.453994631767273</speed>
        </extensions>
      </trkpt>
      <trkpt lat="46.2976219" lon="7.4284651">
        <ele>1089.0</ele>
        <time>2016-08-23T17:10:43Z</time>
        <hdop>3.0</hdop>
        <extensions>
          <speed>1.812208652496338</speed>
        </extensions>
      </trkpt>
      <trkpt lat="46.2975694" lon="7.4281147">
        <ele>1087.0</ele>
        <time>2016-08-23T17:10:49Z</time>
        <hdop>3.0</hdop>
        <extensions>
          <speed>5.980008125305176</speed>
        </extensions>
      </trkpt>
      <trkpt lat="46.2975254" lon="7.4280358">
        <ele>1089.0</ele>
        <time>2016-08-23T17:10:55Z</time>
        <hdop>3.0</hdop>
        <extensions>
          <speed>1.1414027214050293</speed>
        </extensions>
      </trkpt>
      <trkpt lat="46.2974652" lon="7.4279471">
        <ele>1090.0</ele>
        <time>2016-08-23T17:11:01Z</time>
        <hdop>3.0</hdop>
        <extensions>
          <speed>2.082402467727661</speed>
        </extensions>
      </trkpt>
      <trkpt lat="46.2973512" lon="7.4279506">
        <ele>1089.0</ele>
        <time>2016-08-23T17:11:06Z</time>
        <hdop>3.0</hdop>
        <extensions>
          <speed>2.95205020904541</speed>
        </extensions>
      </trkpt>
      <trkpt lat="46.2971813" lon="7.4278495">
        <ele>1089.0</ele>
        <time>2016-08-23T17:11:12Z</time>
        <hdop>3.0</hdop>
        <extensions>
          <speed>3.240000009536743</speed>
        </extensions>
      </trkpt>
      <trkpt lat="46.2970345" lon="7.4277891">
        <ele>1088.0</ele>
        <time>2016-08-23T17:11:17Z</time>
        <hdop>3.0</hdop>
        <extensions>
          <speed>3.2205591201782227</speed>
        </extensions>
      </trkpt>
      <trkpt lat="46.2968729" lon="7.4278396">
        <ele>1086.0</ele>
        <time>2016-08-23T17:11:23Z</time>
        <hdop>3.0</hdop>
        <extensions>
          <speed>3.2921876907348633</speed>
        </extensions>
      </trkpt>
      <trkpt lat="46.296629" lon="7.4279837">
        <ele>1084.0</ele>
        <time>2016-08-23T17:11:29Z</time>
        <hdop>3.0</hdop>
        <extensions>
          <speed>6.0092010498046875</speed>
        </extensions>
      </trkpt>
      <trkpt lat="46.296279" lon="7.4280079">
        <ele>1079.0</ele>
        <time>2016-08-23T17:11:34Z</time>
        <hdop>3.0</hdop>
        <extensions>
          <speed>8.183507919311523</speed>
        </extensions>
      </trkpt>
      <trkpt lat="46.2959261" lon="7.4277998">
        <ele>1076.0</ele>
        <time>2016-08-23T17:11:40Z</time>
        <hdop>3.0</hdop>
        <extensions>
          <speed>7.1833696365356445</speed>
        </extensions>
      </trkpt>
      <trkpt lat="46.295719" lon="7.427516">
        <ele>1075.0</ele>
        <time>2016-08-23T17:11:45Z</time>
        <hdop>3.0</hdop>
        <extensions>
          <speed>4.74304723739624</speed>
        </extensions>
      </trkpt>
      <trkpt lat="46.2956588" lon="7.4275102">
        <ele>1074.0</ele>
        <time>2016-08-23T17:11:51Z</time>
        <hdop>3.0</hdop>
        <extensions>
          <speed>0.8238931894302368</speed>
        </extensions>
      </trkpt>
      <trkpt lat="46.2956667" lon="7.4275138">
        <ele>1075.0</ele>
        <time>2016-08-23T17:11:56Z</time>
        <hdop>3.0</hdop>
      </trkpt>
      <trkpt lat="46.295671" lon="7.427517">
        <ele>1075.0</ele>
        <time>2016-08-23T17:12:02Z</time>
        <hdop>3.0</hdop>
      </trkpt>
      <trkpt lat="46.2956667" lon="7.4275231">
        <ele>1075.0</ele>
        <time>2016-08-23T17:12:09Z</time>
        <hdop>3.0</hdop>
      </trkpt>
      <trkpt lat="46.295657" lon="7.4275378">
        <ele>1075.0</ele>
        <time>2016-08-23T17:12:14Z</time>
        <hdop>3.0</hdop>
      </trkpt>
      <trkpt lat="46.2956572" lon="7.427538">
        <ele>1074.0</ele>
        <time>2016-08-23T17:12:20Z</time>
        <hdop>3.0</hdop>
      </trkpt>
      <trkpt lat="46.2956572" lon="7.4275376">
        <ele>1074.0</ele>
        <time>2016-08-23T17:12:25Z</time>
        <hdop>3.0</hdop>
      </trkpt>
      <trkpt lat="46.2956572" lon="7.4275372">
        <ele>1074.0</ele>
        <time>2016-08-23T17:12:31Z</time>
        <hdop>3.0</hdop>
      </trkpt>
      <trkpt lat="46.2956573" lon="7.427537">
        <ele>1074.0</ele>
        <time>2016-08-23T17:12:36Z</time>
        <hdop>3.0</hdop>
      </trkpt>
      <trkpt lat="46.2956574" lon="7.4275368">
        <ele>1074.0</ele>
        <time>2016-08-23T17:12:42Z</time>
        <hdop>3.0</hdop>
      </trkpt>
      <trkpt lat="46.2956575" lon="7.4275367">
        <ele>1074.0</ele>
        <time>2016-08-23T17:12:47Z</time>
        <hdop>3.0</hdop>
      </trkpt>
      <trkpt lat="46.2956559" lon="7.4275296">
        <ele>1075.0</ele>
        <time>2016-08-23T17:12:53Z</time>
        <hdop>3.0</hdop>
      </trkpt>
      <trkpt lat="46.2956635" lon="7.4275182">
        <ele>1074.0</ele>
        <time>2016-08-23T17:12:59Z</time>
        <hdop>3.0</hdop>
      </trkpt>
      <trkpt lat="46.2956605" lon="7.4275168">
        <ele>1074.0</ele>
        <time>2016-08-23T17:13:05Z</time>
        <hdop>3.0</hdop>
      </trkpt>
      <trkpt lat="46.2956629" lon="7.4275281">
        <ele>1074.0</ele>
        <time>2016-08-23T17:13:10Z</time>
        <hdop>3.0</hdop>
      </trkpt>
      <trkpt lat="46.2956673" lon="7.4275197">
        <ele>1075.0</ele>
        <time>2016-08-23T17:13:16Z</time>
        <hdop>3.0</hdop>
      </trkpt>
      <trkpt lat="46.2956842" lon="7.4275159">
        <ele>1075.0</ele>
        <time>2016-08-23T17:13:22Z</time>
        <hdop>3.0</hdop>
        <extensions>
          <speed>0.9861541390419006</speed>
        </extensions>
      </trkpt>
      <trkpt lat="46.2957653" lon="7.4276135">
        <ele>1075.0</ele>
        <time>2016-08-23T17:13:27Z</time>
        <hdop>3.0</hdop>
        <extensions>
          <speed>2.850280523300171</speed>
        </extensions>
      </trkpt>
      <trkpt lat="46.2958782" lon="7.4277664">
        <ele>1076.0</ele>
        <time>2016-08-23T17:13:33Z</time>
        <hdop>3.0</hdop>
        <extensions>
          <speed>2.9660918712615967</speed>
        </extensions>
      </trkpt>
      <trkpt lat="46.2960141" lon="7.4279027">
        <ele>1077.0</ele>
        <time>2016-08-23T17:13:39Z</time>
        <hdop>3.0</hdop>
        <extensions>
          <speed>3.160015821456909</speed>
        </extensions>
      </trkpt>
      <trkpt lat="46.2961354" lon="7.4279618">
        <ele>1079.0</ele>
        <time>2016-08-23T17:13:44Z</time>
        <hdop>3.0</hdop>
        <extensions>
          <speed>3.0641801357269287</speed>
        </extensions>
      </trkpt>
      <trkpt lat="46.2962704" lon="7.4279718">
        <ele>1079.0</ele>
        <time>2016-08-23T17:13:49Z</time>
        <hdop>3.0</hdop>
        <extensions>
          <speed>3.0628254413604736</speed>
        </extensions>
      </trkpt>
      <trkpt lat="46.2964265" lon="7.4279628">
        <ele>1081.0</ele>
        <time>2016-08-23T17:13:55Z</time>
        <hdop>3.0</hdop>
        <extensions>
          <speed>2.6234517097473145</speed>
        </extensions>
      </trkpt>
      <trkpt lat="46.2965744" lon="7.4279505">
        <ele>1083.0</ele>
        <time>2016-08-23T17:14:01Z</time>
        <hdop>3.0</hdop>
        <extensions>
          <speed>2.6882150173187256</speed>
        </extensions>
      </trkpt>
      <trkpt lat="46.2966611" lon="7.4279247">
        <ele>1085.0</ele>
        <time>2016-08-23T17:14:06Z</time>
        <hdop>3.0</hdop>
        <extensions>
          <speed>2.1446213722229004</speed>
        </extensions>
      </trkpt>
      <trkpt lat="46.2967453" lon="7.4278812">
        <ele>1085.0</ele>
        <time>2016-08-23T17:14:11Z</time>
        <hdop>3.0</hdop>
        <extensions>
          <speed>1.819944977760315</speed>
        </extensions>
      </trkpt>
      <trkpt lat="46.2968647" lon="7.4278257">
        <ele>1088.0</ele>
        <time>2016-08-23T17:14:17Z</time>
        <hdop>3.0</hdop>
        <extensions>
          <speed>2.2276668548583984</speed>
        </extensions>
      </trkpt>
      <trkpt lat="46.2969523" lon="7.4277711">
        <ele>1089.0</ele>
        <time>2016-08-23T17:14:22Z</time>
        <hdop>3.0</hdop>
        <extensions>
          <speed>2.453446626663208</speed>
        </extensions>
      </trkpt>
      <trkpt lat="46.2971154" lon="7.4278107">
        <ele>1089.0</ele>
        <time>2016-08-23T17:14:28Z</time>
        <hdop>3.0</hdop>
        <extensions>
          <speed>3.060408353805542</speed>
        </extensions>
      </trkpt>
      <trkpt lat="46.2972451" lon="7.4278722">
        <ele>1090.0</ele>
        <time>2016-08-23T17:14:33Z</time>
        <hdop>3.0</hdop>
        <extensions>
          <speed>3.0916175842285156</speed>
        </extensions>
      </trkpt>
      <trkpt lat="46.2973783" lon="7.4278749">
        <ele>1090.0</ele>
        <time>2016-08-23T17:14:38Z</time>
        <hdop>3.0</hdop>
        <extensions>
          <speed>2.7846903800964355</speed>
        </extensions>
      </trkpt>
      <trkpt lat="46.2974426" lon="7.4276849">
        <ele>1090.0</ele>
        <time>2016-08-23T17:14:44Z</time>
        <hdop>3.0</hdop>
        <extensions>
          <speed>3.3221678733825684</speed>
        </extensions>
      </trkpt>
      <trkpt lat="46.2975928" lon="7.4275335">
        <ele>1088.0</ele>
        <time>2016-08-23T17:14:50Z</time>
        <hdop>3.0</hdop>
        <extensions>
          <speed>2.992022752761841</speed>
        </extensions>
      </trkpt>
      <trkpt lat="46.2977265" lon="7.4274564">
        <ele>1088.0</ele>
        <time>2016-08-23T17:14:56Z</time>
        <hdop>3.0</hdop>
        <extensions>
          <speed>2.7301647663116455</speed>
        </extensions>
      </trkpt>
      <trkpt lat="46.2977002" lon="7.4272278">
        <ele>1088.0</ele>
        <time>2016-08-23T17:15:02Z</time>
        <hdop>3.0</hdop>
        <extensions>
          <speed>3.4705188274383545</speed>
        </extensions>
      </trkpt>
      <trkpt lat="46.2975817" lon="7.4269926">
        <ele>1088.0</ele>
        <time>2016-08-23T17:15:07Z</time>
        <hdop>3.0</hdop>
        <extensions>
          <speed>5.070798873901367</speed>
        </extensions>
      </trkpt>
      <trkpt lat="46.2973904" lon="7.4266526">
        <ele>1088.0</ele>
        <time>2016-08-23T17:15:13Z</time>
        <hdop>3.0</hdop>
        <extensions>
          <speed>5.700035095214844</speed>
        </extensions>
      </trkpt>
      <trkpt lat="46.2972188" lon="7.4264025">
        <ele>1088.0</ele>
        <time>2016-08-23T17:15:18Z</time>
        <hdop>3.0</hdop>
        <extensions>
          <speed>5.260000228881836</speed>
        </extensions>
      </trkpt>
      <trkpt lat="46.2970116" lon="7.4261184">
        <ele>1088.0</ele>
        <time>2016-08-23T17:15:24Z</time>
        <hdop>3.0</hdop>
        <extensions>
          <speed>5.0308051109313965</speed>
        </extensions>
      </trkpt>
      <trkpt lat="46.296842" lon="7.4259211">
        <ele>1091.0</ele>
        <time>2016-08-23T17:15:29Z</time>
        <hdop>3.0</hdop>
        <extensions>
          <speed>5.075214385986328</speed>
        </extensions>
      </trkpt>
      <trkpt lat="46.2966583" lon="7.4257009">
        <ele>1091.0</ele>
        <time>2016-08-23T17:15:34Z</time>
        <hdop>3.0</hdop>
        <extensions>
          <speed>5.23000955581665</speed>
        </extensions>
      </trkpt>
      <trkpt lat="46.2964004" lon="7.4254056">
        <ele>1087.0</ele>
        <time>2016-08-23T17:15:40Z</time>
        <hdop>3.0</hdop>
        <extensions>
          <speed>6.0821051597595215</speed>
        </extensions>
      </trkpt>
      <trkpt lat="46.2961414" lon="7.4251382">
        <ele>1084.0</ele>
        <time>2016-08-23T17:15:45Z</time>
        <hdop>3.0</hdop>
        <extensions>
          <speed>7.215981960296631</speed>
        </extensions>
      </trkpt>
      <trkpt lat="46.2959285" lon="7.4249349">
        <ele>1083.0</ele>
        <time>2016-08-23T17:15:50Z</time>
        <hdop>3.0</hdop>
        <extensions>
          <speed>4.62155818939209</speed>
        </extensions>
      </trkpt>
      <trkpt lat="46.2959451" lon="7.4245658">
        <ele>1083.0</ele>
        <time>2016-08-23T17:15:56Z</time>
        <hdop>5.0</hdop>
        <extensions>
          <speed>4.27168607711792</speed>
        </extensions>
      </trkpt>
      <trkpt lat="46.2957274" lon="7.4245619">
        <ele>1088.0</ele>
        <time>2016-08-23T17:16:02Z</time>
        <hdop>5.0</hdop>
        <extensions>
          <speed>2.770162343978882</speed>
        </extensions>
      </trkpt>
      <trkpt lat="46.2956263" lon="7.4246971">
        <ele>1092.0</ele>
        <time>2016-08-23T17:16:08Z</time>
        <hdop>5.0</hdop>
        <extensions>
          <speed>1.4632840156555176</speed>
        </extensions>
      </trkpt>
      <trkpt lat="46.2954256" lon="7.4248415">
        <ele>1091.0</ele>
        <time>2016-08-23T17:16:13Z</time>
        <hdop>4.0</hdop>
        <extensions>
          <speed>1.8532134294509888</speed>
        </extensions>
      </trkpt>
      <trkpt lat="46.2951733" lon="7.4247955">
        <ele>1085.0</ele>
        <time>2016-08-23T17:16:19Z</time>
        <hdop>3.0</hdop>
        <extensions>
          <speed>4.481350421905518</speed>
        </extensions>
      </trkpt>
      <trkpt lat="46.2948741" lon="7.4244785">
        <ele>1081.0</ele>
        <time>2016-08-23T17:16:25Z</time>
        <hdop>3.0</hdop>
        <extensions>
          <speed>7.116888523101807</speed>
        </extensions>
      </trkpt>
      <trkpt lat="46.2945184" lon="7.4242916">
        <ele>1078.0</ele>
        <time>2016-08-23T17:16:30Z</time>
        <hdop>3.0</hdop>
        <extensions>
          <speed>8.544266700744629</speed>
        </extensions>
      </trkpt>
      <trkpt lat="46.29417" lon="7.4240595">
        <ele>1078.0</ele>
        <time>2016-08-23T17:16:36Z</time>
        <hdop>3.0</hdop>
        <extensions>
          <speed>5.880544662475586</speed>
        </extensions>
      </trkpt>
      <trkpt lat="46.2938855" lon="7.4239124">
        <ele>1079.0</ele>
        <time>2016-08-23T17:16:42Z</time>
        <hdop>3.0</hdop>
        <extensions>
          <speed>5.550576686859131</speed>
        </extensions>
      </trkpt>
      <trkpt lat="46.2936361" lon="7.4239764">
        <ele>1076.0</ele>
        <time>2016-08-23T17:16:47Z</time>
        <hdop>3.0</hdop>
        <extensions>
          <speed>5.3896660804748535</speed>
        </extensions>
      </trkpt>
      <trkpt lat="46.2934296" lon="7.4240776">
        <ele>1082.0</ele>
        <time>2016-08-23T17:16:53Z</time>
        <hdop>4.0</hdop>
        <extensions>
          <speed>2.7325079441070557</speed>
        </extensions>
      </trkpt>
      <trkpt lat="46.2932841" lon="7.4238736">
        <ele>1083.0</ele>
        <time>2016-08-23T17:16:59Z</time>
        <hdop>3.0</hdop>
        <extensions>
          <speed>2.9382479190826416</speed>
        </extensions>
      </trkpt>
      <trkpt lat="46.2931929" lon="7.423788">
        <ele>1083.0</ele>
        <time>2016-08-23T17:17:04Z</time>
        <hdop>3.0</hdop>
        <extensions>
          <speed>2.308354377746582</speed>
        </extensions>
      </trkpt>
      <trkpt lat="46.2930457" lon="7.4237307">
        <ele>1083.0</ele>
        <time>2016-08-23T17:17:10Z</time>
        <hdop>3.0</hdop>
        <extensions>
          <speed>2.8214356899261475</speed>
        </extensions>
      </trkpt>
      <trkpt lat="46.2929" lon="7.4236232">
        <ele>1086.0</ele>
        <time>2016-08-23T17:17:16Z</time>
        <hdop>3.0</hdop>
        <extensions>
          <speed>2.880138874053955</speed>
        </extensions>
      </trkpt>
      <trkpt lat="46.2927952" lon="7.423496">
        <ele>1086.0</ele>
        <time>2016-08-23T17:17:21Z</time>
        <hdop>3.0</hdop>
        <extensions>
          <speed>2.982029438018799</speed>
        </extensions>
      </trkpt>
      <trkpt lat="46.2926284" lon="7.4233202">
        <ele>1084.0</ele>
        <time>2016-08-23T17:17:27Z</time>
        <hdop>3.0</hdop>
        <extensions>
          <speed>3.6001248359680176</speed>
        </extensions>
      </trkpt>
      <trkpt lat="46.2924384" lon="7.4231077">
        <ele>1084.0</ele>
        <time>2016-08-23T17:17:33Z</time>
        <hdop>3.0</hdop>
        <extensions>
          <speed>4.43010139465332</speed>
        </extensions>
      </trkpt>
      <trkpt lat="46.2922651" lon="7.4228895">
        <ele>1084.0</ele>
        <time>2016-08-23T17:17:39Z</time>
        <hdop>3.0</hdop>
        <extensions>
          <speed>3.4053049087524414</speed>
        </extensions>
      </trkpt>
      <trkpt lat="46.2921712" lon="7.422786">
        <ele>1089.0</ele>
        <time>2016-08-23T17:17:45Z</time>
        <hdop>3.0</hdop>
        <extensions>
          <speed>1.8523768186569214</speed>
        </extensions>
      </trkpt>
      <trkpt lat="46.2921006" lon="7.4227067">
        <ele>1093.0</ele>
        <time>2016-08-23T17:17:50Z</time>
        <hdop>3.0</hdop>
        <extensions>
          <speed>1.4173920154571533</speed>
        </extensions>
      </trkpt>
      <trkpt lat="46.2919808" lon="7.4225141">
        <ele>1094.0</ele>
        <time>2016-08-23T17:17:56Z</time>
        <hdop>3.0</hdop>
        <extensions>
          <speed>3.9345903396606445</speed>
        </extensions>
      </trkpt>
      <trkpt lat="46.2917203" lon="7.4223177">
        <ele>1092.0</ele>
        <time>2016-08-23T17:18:02Z</time>
        <hdop>3.0</hdop>
        <extensions>
          <speed>6.264224052429199</speed>
        </extensions>
      </trkpt>
      <trkpt lat="46.2914309" lon="7.4220527">
        <ele>1090.0</ele>
        <time>2016-08-23T17:18:07Z</time>
        <hdop>3.0</hdop>
        <extensions>
          <speed>8.580093383789063</speed>
        </extensions>
      </trkpt>
      <trkpt lat="46.2910002" lon="7.4217852">
        <ele>1085.0</ele>
        <time>2016-08-23T17:18:12Z</time>
        <hdop>3.0</hdop>
        <extensions>
          <speed>10.328625679016113</speed>
        </extensions>
      </trkpt>
      <trkpt lat="46.2904554" lon="7.4214418">
        <ele>1077.0</ele>
        <time>2016-08-23T17:18:18Z</time>
        <hdop>3.0</hdop>
        <extensions>
          <speed>10.8246431350708</speed>
        </extensions>
      </trkpt>
      <trkpt lat="46.2899816" lon="7.4214234">
        <ele>1071.0</ele>
        <time>2016-08-23T17:18:23Z</time>
        <hdop>3.0</hdop>
        <extensions>
          <speed>10.60645580291748</speed>
        </extensions>
      </trkpt>
      <trkpt lat="46.2893827" lon="7.42118">
        <ele>1065.0</ele>
        <time>2016-08-23T17:18:29Z</time>
        <hdop>3.0</hdop>
        <extensions>
          <speed>12.347651481628418</speed>
        </extensions>
      </trkpt>
      <trkpt lat="46.2888249" lon="7.4209225">
        <ele>1058.0</ele>
        <time>2016-08-23T17:18:34Z</time>
        <hdop>3.0</hdop>
        <extensions>
          <speed>11.706429481506348</speed>
        </extensions>
      </trkpt>
      <trkpt lat="46.2885004" lon="7.4202663">
        <ele>1051.0</ele>
        <time>2016-08-23T17:18:40Z</time>
        <hdop>3.0</hdop>
        <extensions>
          <speed>11.292444229125977</speed>
        </extensions>
      </trkpt>
      <trkpt lat="46.2881192" lon="7.420041">
        <ele>1045.0</ele>
        <time>2016-08-23T17:18:46Z</time>
        <hdop>5.0</hdop>
        <extensions>
          <speed>7.970401287078857</speed>
        </extensions>
      </trkpt>
      <trkpt lat="46.2880326" lon="7.4207991">
        <ele>1047.0</ele>
        <time>2016-08-23T17:18:52Z</time>
        <hdop>6.0</hdop>
        <extensions>
          <speed>10.880294799804688</speed>
        </extensions>
      </trkpt>
      <trkpt lat="46.287573" lon="7.4212365">
        <ele>1041.0</ele>
        <time>2016-08-23T17:18:58Z</time>
        <hdop>3.0</hdop>
        <extensions>
          <speed>8.95645523071289</speed>
        </extensions>
      </trkpt>
      <trkpt lat="46.2870398" lon="7.4211139">
        <ele>1033.0</ele>
        <time>2016-08-23T17:19:04Z</time>
        <hdop>3.0</hdop>
        <extensions>
          <speed>9.991060256958008</speed>
        </extensions>
      </trkpt>
      <trkpt lat="46.286509" lon="7.4210782">
        <ele>1028.0</ele>
        <time>2016-08-23T17:19:10Z</time>
        <hdop>3.0</hdop>
        <extensions>
          <speed>9.222624778747559</speed>
        </extensions>
      </trkpt>
      <trkpt lat="46.2860529" lon="7.4209979">
        <ele>1026.0</ele>
        <time>2016-08-23T17:19:16Z</time>
        <hdop>3.0</hdop>
        <extensions>
          <speed>8.420854568481445</speed>
        </extensions>
      </trkpt>
      <trkpt lat="46.2856992" lon="7.4208115">
        <ele>1024.0</ele>
        <time>2016-08-23T17:19:21Z</time>
        <hdop>3.0</hdop>
        <extensions>
          <speed>8.096728324890137</speed>
        </extensions>
      </trkpt>
      <trkpt lat="46.2852841" lon="7.4205336">
        <ele>1023.0</ele>
        <time>2016-08-23T17:19:27Z</time>
        <hdop>3.0</hdop>
        <extensions>
          <speed>8.740463256835938</speed>
        </extensions>
      </trkpt>
      <trkpt lat="46.2849084" lon="7.4200929">
        <ele>1020.0</ele>
        <time>2016-08-23T17:19:33Z</time>
        <hdop>3.0</hdop>
        <extensions>
          <speed>8.692300796508789</speed>
        </extensions>
      </trkpt>
      <trkpt lat="46.2845197" lon="7.4197125">
        <ele>1019.0</ele>
        <time>2016-08-23T17:19:39Z</time>
        <hdop>3.0</hdop>
        <extensions>
          <speed>8.980672836303711</speed>
        </extensions>
      </trkpt>
      <trkpt lat="46.2840467" lon="7.4194228">
        <ele>1015.0</ele>
        <time>2016-08-23T17:19:45Z</time>
        <hdop>3.0</hdop>
        <extensions>
          <speed>9.836960792541504</speed>
        </extensions>
      </trkpt>
      <trkpt lat="46.2836278" lon="7.4190389">
        <ele>1013.0</ele>
        <time>2016-08-23T17:19:51Z</time>
        <hdop>3.0</hdop>
        <extensions>
          <speed>8.680023193359375</speed>
        </extensions>
      </trkpt>
      <trkpt lat="46.2833788" lon="7.4186606">
        <ele>1014.0</ele>
        <time>2016-08-23T17:19:56Z</time>
        <hdop>3.0</hdop>
        <extensions>
          <speed>7.809744358062744</speed>
        </extensions>
      </trkpt>
      <trkpt lat="46.283048" lon="7.4183224">
        <ele>1015.0</ele>
        <time>2016-08-23T17:20:02Z</time>
        <hdop>3.0</hdop>
        <extensions>
          <speed>7.450026988983154</speed>
        </extensions>
      </trkpt>
      <trkpt lat="46.2826972" lon="7.4180338">
        <ele>1014.0</ele>
        <time>2016-08-23T17:20:08Z</time>
        <hdop>3.0</hdop>
        <extensions>
          <speed>7.770057678222656</speed>
        </extensions>
      </trkpt>
      <trkpt lat="46.2823944" lon="7.417771">
        <ele>1014.0</ele>
        <time>2016-08-23T17:20:13Z</time>
        <hdop>3.0</hdop>
        <extensions>
          <speed>7.660162925720215</speed>
        </extensions>
      </trkpt>
      <trkpt lat="46.282079" lon="7.4174672">
        <ele>1015.0</ele>
        <time>2016-08-23T17:20:19Z</time>
        <hdop>3.0</hdop>
        <extensions>
          <speed>6.552206039428711</speed>
        </extensions>
      </trkpt>
      <trkpt lat="46.2818391" lon="7.4171603">
        <ele>1016.0</ele>
        <time>2016-08-23T17:20:25Z</time>
        <hdop>3.0</hdop>
        <extensions>
          <speed>5.603936195373535</speed>
        </extensions>
      </trkpt>
      <trkpt lat="46.2816706" lon="7.4167942">
        <ele>1015.0</ele>
        <time>2016-08-23T17:20:31Z</time>
        <hdop>3.0</hdop>
        <extensions>
          <speed>5.5612945556640625</speed>
        </extensions>
      </trkpt>
      <trkpt lat="46.2815737" lon="7.416471">
        <ele>1016.0</ele>
        <time>2016-08-23T17:20:36Z</time>
        <hdop>3.0</hdop>
        <extensions>
          <speed>5.401333332061768</speed>
        </extensions>
      </trkpt>
      <trkpt lat="46.2814751" lon="7.4161005">
        <ele>1018.0</ele>
        <time>2016-08-23T17:20:42Z</time>
        <hdop>3.0</hdop>
        <extensions>
          <speed>5.231156826019287</speed>
        </extensions>
      </trkpt>
      <trkpt lat="46.2813938" lon="7.415779">
        <ele>1019.0</ele>
        <time>2016-08-23T17:20:47Z</time>
        <hdop>3.0</hdop>
        <extensions>
          <speed>5.230468273162842</speed>
        </extensions>
      </trkpt>
      <trkpt lat="46.2812865" lon="7.4153604">
        <ele>1019.0</ele>
        <time>2016-08-23T17:20:53Z</time>
        <hdop>3.0</hdop>
        <extensions>
          <speed>5.829999923706055</speed>
        </extensions>
      </trkpt>
      <trkpt lat="46.2811977" lon="7.4149933">
        <ele>1019.0</ele>
        <time>2016-08-23T17:20:58Z</time>
        <hdop>3.0</hdop>
        <extensions>
          <speed>5.850546836853027</speed>
        </extensions>
      </trkpt>
      <trkpt lat="46.2810498" lon="7.4145722">
        <ele>1018.0</ele>
        <time>2016-08-23T17:21:04Z</time>
        <hdop>3.0</hdop>
        <extensions>
          <speed>6.400703430175781</speed>
        </extensions>
      </trkpt>
      <trkpt lat="46.28088" lon="7.414205">
        <ele>1017.0</ele>
        <time>2016-08-23T17:21:09Z</time>
        <hdop>3.0</hdop>
        <extensions>
          <speed>6.6400675773620605</speed>
        </extensions>
      </trkpt>
      <trkpt lat="46.2808045" lon="7.413719">
        <ele>1017.0</ele>
        <time>2016-08-23T17:21:15Z</time>
        <hdop>3.0</hdop>
        <extensions>
          <speed>6.430030822753906</speed>
        </extensions>
      </trkpt>
      <trkpt lat="46.280761" lon="7.4132767">
        <ele>1018.0</ele>
        <time>2016-08-23T17:21:21Z</time>
        <hdop>3.0</hdop>
        <extensions>
          <speed>6.050008296966553</speed>
        </extensions>
      </trkpt>
      <trkpt lat="46.2805674" lon="7.4129955">
        <ele>1018.0</ele>
        <time>2016-08-23T17:21:26Z</time>
        <hdop>3.0</hdop>
        <extensions>
          <speed>6.090664863586426</speed>
        </extensions>
      </trkpt>
      <trkpt lat="46.2802823" lon="7.4129736">
        <ele>1021.0</ele>
        <time>2016-08-23T17:21:31Z</time>
        <hdop>3.0</hdop>
        <extensions>
          <speed>6.570761203765869</speed>
        </extensions>
      </trkpt>
      <trkpt lat="46.279914" lon="7.4129796">
        <ele>1020.0</ele>
        <time>2016-08-23T17:21:37Z</time>
        <hdop>3.0</hdop>
        <extensions>
          <speed>6.740363597869873</speed>
        </extensions>
      </trkpt>
      <trkpt lat="46.2795605" lon="7.4128662">
        <ele>1020.0</ele>
        <time>2016-08-23T17:21:43Z</time>
        <hdop>3.0</hdop>
        <extensions>
          <speed>6.81002950668335</speed>
        </extensions>
      </trkpt>
      <trkpt lat="46.2793232" lon="7.4124731">
        <ele>1020.0</ele>
        <time>2016-08-23T17:21:49Z</time>
        <hdop>3.0</hdop>
        <extensions>
          <speed>6.840065956115723</speed>
        </extensions>
      </trkpt>
      <trkpt lat="46.2791542" lon="7.4121119">
        <ele>1021.0</ele>
        <time>2016-08-23T17:21:54Z</time>
        <hdop>3.0</hdop>
        <extensions>
          <speed>6.7202677726745605</speed>
        </extensions>
      </trkpt>
      <trkpt lat="46.2789548" lon="7.4116645">
        <ele>1020.0</ele>
        <time>2016-08-23T17:22:00Z</time>
        <hdop>3.0</hdop>
        <extensions>
          <speed>6.4707722663879395</speed>
        </extensions>
      </trkpt>
      <trkpt lat="46.2787799" lon="7.4113326">
        <ele>1020.0</ele>
        <time>2016-08-23T17:22:05Z</time>
        <hdop>3.0</hdop>
        <extensions>
          <speed>6.320198059082031</speed>
        </extensions>
      </trkpt>
      <trkpt lat="46.2785906" lon="7.4109738">
        <ele>1021.0</ele>
        <time>2016-08-23T17:22:11Z</time>
        <hdop>3.0</hdop>
        <extensions>
          <speed>5.422665596008301</speed>
        </extensions>
      </trkpt>
      <trkpt lat="46.278443" lon="7.4106585">
        <ele>1023.0</ele>
        <time>2016-08-23T17:22:17Z</time>
        <hdop>3.0</hdop>
        <extensions>
          <speed>4.74269962310791</speed>
        </extensions>
      </trkpt>
      <trkpt lat="46.2783679" lon="7.4104036">
        <ele>1024.0</ele>
        <time>2016-08-23T17:22:22Z</time>
        <hdop>3.0</hdop>
        <extensions>
          <speed>3.9600000381469727</speed>
        </extensions>
      </trkpt>
      <trkpt lat="46.2782928" lon="7.410091">
        <ele>1024.0</ele>
        <time>2016-08-23T17:22:28Z</time>
        <hdop>3.0</hdop>
        <extensions>
          <speed>5.750217437744141</speed>
        </extensions>
      </trkpt>
      <trkpt lat="46.2780699" lon="7.4098215">
        <ele>1024.0</ele>
        <time>2016-08-23T17:22:33Z</time>
        <hdop>3.0</hdop>
        <extensions>
          <speed>6.380008220672607</speed>
        </extensions>
      </trkpt>
      <trkpt lat="46.2778404" lon="7.4094842">
        <ele>1025.0</ele>
        <time>2016-08-23T17:22:39Z</time>
        <hdop>3.0</hdop>
        <extensions>
          <speed>6.100401878356934</speed>
        </extensions>
      </trkpt>
      <trkpt lat="46.2776609" lon="7.4090894">
        <ele>1025.0</ele>
        <time>2016-08-23T17:22:45Z</time>
        <hdop>3.0</hdop>
        <extensions>
          <speed>6.12013053894043</speed>
        </extensions>
      </trkpt>
      <trkpt lat="46.2774767" lon="7.4087035">
        <ele>1025.0</ele>
        <time>2016-08-23T17:22:51Z</time>
        <hdop>3.0</hdop>
        <extensions>
          <speed>5.909999847412109</speed>
        </extensions>
      </trkpt>
      <trkpt lat="46.277296" lon="7.4083065">
        <ele>1026.0</ele>
        <time>2016-08-23T17:22:57Z</time>
        <hdop>3.0</hdop>
        <extensions>
          <speed>5.890686988830566</speed>
        </extensions>
      </trkpt>
      <trkpt lat="46.2771092" lon="7.4079249">
        <ele>1027.0</ele>
        <time>2016-08-23T17:23:03Z</time>
        <hdop>3.0</hdop>
        <extensions>
          <speed>5.82103967666626</speed>
        </extensions>
      </trkpt>
      <trkpt lat="46.2769659" lon="7.4075599">
        <ele>1027.0</ele>
        <time>2016-08-23T17:23:09Z</time>
        <hdop>3.0</hdop>
        <extensions>
          <speed>5.3113555908203125</speed>
        </extensions>
      </trkpt>
      <trkpt lat="46.2769093" lon="7.4072257">
        <ele>1028.0</ele>
        <time>2016-08-23T17:23:14Z</time>
        <hdop>3.0</hdop>
        <extensions>
          <speed>5.180617332458496</speed>
        </extensions>
      </trkpt>
      <trkpt lat="46.276859" lon="7.4069206">
        <ele>1028.0</ele>
        <time>2016-08-23T17:23:19Z</time>
        <hdop>3.0</hdop>
        <extensions>
          <speed>4.94049596786499</speed>
        </extensions>
      </trkpt>
      <trkpt lat="46.2767909" lon="7.4065438">
        <ele>1031.0</ele>
        <time>2016-08-23T17:23:25Z</time>
        <hdop>3.0</hdop>
        <extensions>
          <speed>5.182470321655273</speed>
        </extensions>
      </trkpt>
      <trkpt lat="46.2767041" lon="7.406149">
        <ele>1032.0</ele>
        <time>2016-08-23T17:23:31Z</time>
        <hdop>3.0</hdop>
        <extensions>
          <speed>5.2116217613220215</speed>
        </extensions>
      </trkpt>
      <trkpt lat="46.2766223" lon="7.4057936">
        <ele>1034.0</ele>
        <time>2016-08-23T17:23:37Z</time>
        <hdop>3.0</hdop>
        <extensions>
          <speed>4.980492115020752</speed>
        </extensions>
      </trkpt>
      <trkpt lat="46.2764599" lon="7.4054913">
        <ele>1035.0</ele>
        <time>2016-08-23T17:23:43Z</time>
        <hdop>3.0</hdop>
        <extensions>
          <speed>5.04000997543335</speed>
        </extensions>
      </trkpt>
      <trkpt lat="46.2762858" lon="7.4051918">
        <ele>1038.0</ele>
        <time>2016-08-23T17:23:49Z</time>
        <hdop>3.0</hdop>
        <extensions>
          <speed>5.190346717834473</speed>
        </extensions>
      </trkpt>
      <trkpt lat="46.2762042" lon="7.404841">
        <ele>1038.0</ele>
        <time>2016-08-23T17:23:55Z</time>
        <hdop>3.0</hdop>
        <extensions>
          <speed>4.700042247772217</speed>
        </extensions>
      </trkpt>
      <trkpt lat="46.2761747" lon="7.4045069">
        <ele>1040.0</ele>
        <time>2016-08-23T17:24:01Z</time>
        <hdop>3.0</hdop>
        <extensions>
          <speed>4.261420249938965</speed>
        </extensions>
      </trkpt>
      <trkpt lat="46.2760403" lon="7.4041922">
        <ele>1039.0</ele>
        <time>2016-08-23T17:24:07Z</time>
        <hdop>3.0</hdop>
        <extensions>
          <speed>4.980090141296387</speed>
        </extensions>
      </trkpt>
      <trkpt lat="46.2758491" lon="7.4039085">
        <ele>1039.0</ele>
        <time>2016-08-23T17:24:12Z</time>
        <hdop>3.0</hdop>
        <extensions>
          <speed>6.864116668701172</speed>
        </extensions>
      </trkpt>
      <trkpt lat="46.2755449" lon="7.4034791">
        <ele>1035.0</ele>
        <time>2016-08-23T17:24:18Z</time>
        <hdop>3.0</hdop>
        <extensions>
          <speed>8.534271240234375</speed>
        </extensions>
      </trkpt>
      <trkpt lat="46.275129" lon="7.4030812">
        <ele>1033.0</ele>
        <time>2016-08-23T17:24:24Z</time>
        <hdop>4.0</hdop>
        <extensions>
          <speed>10.502975463867188</speed>
        </extensions>
      </trkpt>
      <trkpt lat="46.2747008" lon="7.4027187">
        <ele>1030.0</ele>
        <time>2016-08-23T17:24:29Z</time>
        <hdop>3.0</hdop>
        <extensions>
          <speed>11.012616157531738</speed>
        </extensions>
      </trkpt>
      <trkpt lat="46.2741543" lon="7.4022439">
        <ele>1025.0</ele>
        <time>2016-08-23T17:24:35Z</time>
        <hdop>3.0</hdop>
        <extensions>
          <speed>12.092972755432129</speed>
        </extensions>
      </trkpt>
      <trkpt lat="46.2736146" lon="7.4020055">
        <ele>1020.0</ele>
        <time>2016-08-23T17:24:40Z</time>
        <hdop>3.0</hdop>
        <extensions>
          <speed>12.739800453186035</speed>
        </extensions>
      </trkpt>
      <trkpt lat="46.2728044" lon="7.4022342">
        <ele>1013.0</ele>
        <time>2016-08-23T17:24:46Z</time>
        <hdop>3.0</hdop>
        <extensions>
          <speed>13.294875144958496</speed>
        </extensions>
      </trkpt>
      <trkpt lat="46.2721974" lon="7.402088">
        <ele>1009.0</ele>
        <time>2016-08-23T17:24:52Z</time>
        <hdop>3.0</hdop>
        <extensions>
          <speed>13.28223705291748</speed>
        </extensions>
      </trkpt>
      <trkpt lat="46.2714708" lon="7.4021741">
        <ele>1004.0</ele>
        <time>2016-08-23T17:24:58Z</time>
        <hdop>3.0</hdop>
        <extensions>
          <speed>13.515066146850586</speed>
        </extensions>
      </trkpt>
      <trkpt lat="46.2708848" lon="7.4021302">
        <ele>998.0</ele>
        <time>2016-08-23T17:25:03Z</time>
        <hdop>3.0</hdop>
        <extensions>
          <speed>13.313079833984375</speed>
        </extensions>
      </trkpt>
      <trkpt lat="46.2704032" lon="7.401408">
        <ele>994.0</ele>
        <time>2016-08-23T17:25:09Z</time>
        <hdop>3.0</hdop>
        <extensions>
          <speed>12.990015029907227</speed>
        </extensions>
      </trkpt>
      <trkpt lat="46.2700652" lon="7.4005505">
        <ele>989.0</ele>
        <time>2016-08-23T17:25:15Z</time>
        <hdop>3.0</hdop>
        <extensions>
          <speed>12.598039627075195</speed>
        </extensions>
      </trkpt>
      <trkpt lat="46.2696132" lon="7.3999038">
        <ele>985.0</ele>
        <time>2016-08-23T17:25:21Z</time>
        <hdop>3.0</hdop>
        <extensions>
          <speed>12.546334266662598</speed>
        </extensions>
      </trkpt>
      <trkpt lat="46.2689772" lon="7.4002877">
        <ele>980.0</ele>
        <time>2016-08-23T17:25:27Z</time>
        <hdop>3.0</hdop>
        <extensions>
          <speed>13.309394836425781</speed>
        </extensions>
      </trkpt>
      <trkpt lat="46.2683316" lon="7.4000912">
        <ele>975.0</ele>
        <time>2016-08-23T17:25:33Z</time>
        <hdop>3.0</hdop>
        <extensions>
          <speed>13.05846118927002</speed>
        </extensions>
      </trkpt>
      <trkpt lat="46.2679062" lon="7.3994819">
        <ele>971.0</ele>
        <time>2016-08-23T17:25:38Z</time>
        <hdop>3.0</hdop>
        <extensions>
          <speed>13.602958679199219</speed>
        </extensions>
      </trkpt>
      <trkpt lat="46.2673911" lon="7.3987838">
        <ele>967.0</ele>
        <time>2016-08-23T17:25:44Z</time>
        <hdop>3.0</hdop>
        <extensions>
          <speed>12.704030990600586</speed>
        </extensions>
      </trkpt>
      <trkpt lat="46.2670389" lon="7.3981924">
        <ele>965.0</ele>
        <time>2016-08-23T17:25:49Z</time>
        <hdop>3.0</hdop>
        <extensions>
          <speed>11.602482795715332</speed>
        </extensions>
      </trkpt>
      <trkpt lat="46.2666562" lon="7.3975074">
        <ele>963.0</ele>
        <time>2016-08-23T17:25:55Z</time>
        <hdop>3.0</hdop>
        <extensions>
          <speed>11.503656387329102</speed>
        </extensions>
      </trkpt>
      <trkpt lat="46.2662658" lon="7.3970214">
        <ele>960.0</ele>
        <time>2016-08-23T17:26:00Z</time>
        <hdop>3.0</hdop>
        <extensions>
          <speed>11.292767524719238</speed>
        </extensions>
      </trkpt>
      <trkpt lat="46.2658125" lon="7.3965024">
        <ele>957.0</ele>
        <time>2016-08-23T17:26:06Z</time>
        <hdop>3.0</hdop>
        <extensions>
          <speed>11.132587432861328</speed>
        </extensions>
      </trkpt>
      <trkpt lat="46.2654274" lon="7.3958759">
        <ele>955.0</ele>
        <time>2016-08-23T17:26:12Z</time>
        <hdop>3.0</hdop>
        <extensions>
          <speed>10.741680145263672</speed>
        </extensions>
      </trkpt>
      <trkpt lat="46.2650284" lon="7.3954515">
        <ele>953.0</ele>
        <time>2016-08-23T17:26:17Z</time>
        <hdop>3.0</hdop>
        <extensions>
          <speed>10.962011337280273</speed>
        </extensions>
      </trkpt>
      <trkpt lat="46.2645646" lon="7.3949586">
        <ele>952.0</ele>
        <time>2016-08-23T17:26:23Z</time>
        <hdop>3.0</hdop>
        <extensions>
          <speed>10.330585479736328</speed>
        </extensions>
      </trkpt>
      <trkpt lat="46.2641405" lon="7.3947239">
        <ele>951.0</ele>
        <time>2016-08-23T17:26:28Z</time>
        <hdop>3.0</hdop>
        <extensions>
          <speed>10.010004997253418</speed>
        </extensions>
      </trkpt>
      <trkpt lat="46.263795" lon="7.3943216">
        <ele>950.0</ele>
        <time>2016-08-23T17:26:33Z</time>
        <hdop>3.0</hdop>
        <extensions>
          <speed>9.79130744934082</speed>
        </extensions>
      </trkpt>
      <trkpt lat="46.2635744" lon="7.3936446">
        <ele>948.0</ele>
        <time>2016-08-23T17:26:39Z</time>
        <hdop>3.0</hdop>
        <extensions>
          <speed>9.650046348571777</speed>
        </extensions>
      </trkpt>
      <trkpt lat="46.263429" lon="7.3930607">
        <ele>948.0</ele>
        <time>2016-08-23T17:26:44Z</time>
        <hdop>3.0</hdop>
        <extensions>
          <speed>9.660004615783691</speed>
        </extensions>
      </trkpt>
      <trkpt lat="46.2631787" lon="7.3925478">
        <ele>947.0</ele>
        <time>2016-08-23T17:26:49Z</time>
        <hdop>3.0</hdop>
        <extensions>
          <speed>9.58088207244873</speed>
        </extensions>
      </trkpt>
      <trkpt lat="46.2629195" lon="7.39205">
        <ele>945.0</ele>
        <time>2016-08-23T17:26:54Z</time>
        <hdop>3.0</hdop>
        <extensions>
          <speed>9.240086555480957</speed>
        </extensions>
      </trkpt>
      <trkpt lat="46.262633" lon="7.3914916">
        <ele>946.0</ele>
        <time>2016-08-23T17:27:00Z</time>
        <hdop>3.0</hdop>
        <extensions>
          <speed>8.98055648803711</speed>
        </extensions>
      </trkpt>
      <trkpt lat="46.2624665" lon="7.3908561">
        <ele>946.0</ele>
        <time>2016-08-23T17:27:06Z</time>
        <hdop>3.0</hdop>
        <extensions>
          <speed>8.760005950927734</speed>
        </extensions>
      </trkpt>
      <trkpt lat="46.2623888" lon="7.3903223">
        <ele>946.0</ele>
        <time>2016-08-23T17:27:11Z</time>
        <hdop>3.0</hdop>
        <extensions>
          <speed>8.261749267578125</speed>
        </extensions>
      </trkpt>
      <trkpt lat="46.2622427" lon="7.3898266">
        <ele>945.0</ele>
        <time>2016-08-23T17:27:16Z</time>
        <hdop>3.0</hdop>
        <extensions>
          <speed>8.510993003845215</speed>
        </extensions>
      </trkpt>
      <trkpt lat="46.262068" lon="7.3893413">
        <ele>945.0</ele>
        <time>2016-08-23T17:27:21Z</time>
        <hdop>3.0</hdop>
        <extensions>
          <speed>8.390053749084473</speed>
        </extensions>
      </trkpt>
      <trkpt lat="46.261927" lon="7.3887537">
        <ele>943.0</ele>
        <time>2016-08-23T17:27:27Z</time>
        <hdop>3.0</hdop>
        <extensions>
          <speed>7.740161418914795</speed>
        </extensions>
      </trkpt>
      <trkpt lat="46.2618636" lon="7.3881799">
        <ele>944.0</ele>
        <time>2016-08-23T17:27:33Z</time>
        <hdop>3.0</hdop>
        <extensions>
          <speed>7.079999923706055</speed>
        </extensions>
      </trkpt>
      <trkpt lat="46.2615816" lon="7.3880104">
        <ele>945.0</ele>
        <time>2016-08-23T17:27:38Z</time>
        <hdop>3.0</hdop>
        <extensions>
          <speed>7.450107097625732</speed>
        </extensions>
      </trkpt>
      <trkpt lat="46.2611927" lon="7.3877226">
        <ele>944.0</ele>
        <time>2016-08-23T17:27:44Z</time>
        <hdop>3.0</hdop>
        <extensions>
          <speed>8.343452453613281</speed>
        </extensions>
      </trkpt>
      <trkpt lat="46.2608986" lon="7.3872628">
        <ele>944.0</ele>
        <time>2016-08-23T17:27:50Z</time>
        <hdop>3.0</hdop>
        <extensions>
          <speed>8.241966247558594</speed>
        </extensions>
      </trkpt>
      <trkpt lat="46.2607579" lon="7.3867785">
        <ele>944.0</ele>
        <time>2016-08-23T17:27:55Z</time>
        <hdop>3.0</hdop>
        <extensions>
          <speed>8.180055618286133</speed>
        </extensions>
      </trkpt>
      <trkpt lat="46.2606246" lon="7.3861783">
        <ele>941.0</ele>
        <time>2016-08-23T17:28:01Z</time>
        <hdop>3.0</hdop>
        <extensions>
          <speed>7.971812725067139</speed>
        </extensions>
      </trkpt>
      <trkpt lat="46.2605018" lon="7.3857266">
        <ele>940.0</ele>
        <time>2016-08-23T17:28:06Z</time>
        <hdop>3.0</hdop>
        <extensions>
          <speed>7.450167655944824</speed>
        </extensions>
      </trkpt>
      <trkpt lat="46.2600922" lon="7.3855895">
        <ele>940.0</ele>
        <time>2016-08-23T17:28:12Z</time>
        <hdop>3.0</hdop>
        <extensions>
          <speed>8.142972946166992</speed>
        </extensions>
      </trkpt>
      <trkpt lat="46.2599151" lon="7.3850106">
        <ele>940.0</ele>
        <time>2016-08-23T17:28:17Z</time>
        <hdop>3.0</hdop>
        <extensions>
          <speed>9.7616605758667</speed>
        </extensions>
      </trkpt>
      <trkpt lat="46.2598769" lon="7.3841673">
        <ele>936.0</ele>
        <time>2016-08-23T17:28:23Z</time>
        <hdop>3.0</hdop>
        <extensions>
          <speed>11.428473472595215</speed>
        </extensions>
      </trkpt>
      <trkpt lat="46.2595911" lon="7.3833507">
        <ele>930.0</ele>
        <time>2016-08-23T17:28:29Z</time>
        <hdop>3.0</hdop>
        <extensions>
          <speed>11.991279602050781</speed>
        </extensions>
      </trkpt>
      <trkpt lat="46.2591086" lon="7.3829652">
        <ele>927.0</ele>
        <time>2016-08-23T17:28:34Z</time>
        <hdop>3.0</hdop>
        <extensions>
          <speed>12.489614486694336</speed>
        </extensions>
      </trkpt>
      <trkpt lat="46.2586159" lon="7.3824349">
        <ele>923.0</ele>
        <time>2016-08-23T17:28:40Z</time>
        <hdop>3.0</hdop>
        <extensions>
          <speed>9.718652725219727</speed>
        </extensions>
      </trkpt>
      <trkpt lat="46.2586378" lon="7.3819966">
        <ele>921.0</ele>
        <time>2016-08-23T17:28:46Z</time>
        <hdop>3.0</hdop>
        <extensions>
          <speed>6.02913761138916</speed>
        </extensions>
      </trkpt>
      <trkpt lat="46.2587748" lon="7.3815579">
        <ele>917.0</ele>
        <time>2016-08-23T17:28:52Z</time>
        <hdop>3.0</hdop>
        <extensions>
          <speed>6.196329593658447</speed>
        </extensions>
      </trkpt>
      <trkpt lat="46.2587993" lon="7.3814475">
        <ele>917.0</ele>
        <time>2016-08-23T17:28:57Z</time>
        <hdop>3.0</hdop>
        <extensions>
          <speed>0.07000000029802322</speed>
        </extensions>
      </trkpt>
      <trkpt lat="46.258817" lon="7.381447">
        <ele>917.0</ele>
        <time>2016-08-23T17:29:03Z</time>
        <hdop>3.0</hdop>
      </trkpt>
      <trkpt lat="46.2587911" lon="7.3814433">
        <ele>914.0</ele>
        <time>2016-08-23T17:29:09Z</time>
        <hdop>3.0</hdop>
      </trkpt>
      <trkpt lat="46.2587911" lon="7.3814397">
        <ele>914.0</ele>
        <time>2016-08-23T17:29:14Z</time>
        <hdop>3.0</hdop>
      </trkpt>
      <trkpt lat="46.2587841" lon="7.3814366">
        <ele>915.0</ele>
        <time>2016-08-23T17:29:20Z</time>
        <hdop>3.0</hdop>
      </trkpt>
      <trkpt lat="46.258783" lon="7.3814349">
        <ele>916.0</ele>
        <time>2016-08-23T17:29:26Z</time>
        <hdop>3.0</hdop>
      </trkpt>
      <trkpt lat="46.2587829" lon="7.3814348">
        <ele>916.0</ele>
        <time>2016-08-23T17:29:32Z</time>
        <hdop>3.0</hdop>
      </trkpt>
      <trkpt lat="46.2587825" lon="7.3814342">
        <ele>916.0</ele>
        <time>2016-08-23T17:29:37Z</time>
        <hdop>3.0</hdop>
      </trkpt>
      <trkpt lat="46.2587821" lon="7.3814338">
        <ele>916.0</ele>
        <time>2016-08-23T17:29:43Z</time>
        <hdop>3.0</hdop>
      </trkpt>
      <trkpt lat="46.2587819" lon="7.3814335">
        <ele>916.0</ele>
        <time>2016-08-23T17:29:48Z</time>
        <hdop>3.0</hdop>
      </trkpt>
      <trkpt lat="46.2587818" lon="7.3814333">
        <ele>916.0</ele>
        <time>2016-08-23T17:29:54Z</time>
        <hdop>3.0</hdop>
      </trkpt>
      <trkpt lat="46.2587815" lon="7.3814332">
        <ele>916.0</ele>
        <time>2016-08-23T17:30:00Z</time>
        <hdop>3.0</hdop>
      </trkpt>
      <trkpt lat="46.2587813" lon="7.3814331">
        <ele>916.0</ele>
        <time>2016-08-23T17:30:06Z</time>
        <hdop>3.0</hdop>
      </trkpt>
      <trkpt lat="46.2587811" lon="7.381433">
        <ele>916.0</ele>
        <time>2016-08-23T17:30:12Z</time>
        <hdop>3.0</hdop>
      </trkpt>
      <trkpt lat="46.258781" lon="7.3814331">
        <ele>916.0</ele>
        <time>2016-08-23T17:30:18Z</time>
        <hdop>3.0</hdop>
      </trkpt>
      <trkpt lat="46.2587935" lon="7.3814346">
        <ele>916.0</ele>
        <time>2016-08-23T17:30:25Z</time>
        <hdop>3.0</hdop>
        <extensions>
          <speed>1.0941662788391113</speed>
        </extensions>
      </trkpt>
      <trkpt lat="46.2587977" lon="7.3814462">
        <ele>915.0</ele>
        <time>2016-08-23T17:30:30Z</time>
        <hdop>3.0</hdop>
        <extensions>
          <speed>0.12999999523162842</speed>
        </extensions>
      </trkpt>
      <trkpt lat="46.2588024" lon="7.3814564">
        <ele>914.0</ele>
        <time>2016-08-23T17:30:35Z</time>
        <hdop>3.0</hdop>
        <extensions>
          <speed>0.2009975165128708</speed>
        </extensions>
      </trkpt>
      <trkpt lat="46.2588062" lon="7.3813805">
        <ele>913.0</ele>
        <time>2016-08-23T17:30:41Z</time>
        <hdop>3.0</hdop>
        <extensions>
          <speed>2.8400702476501465</speed>
        </extensions>
      </trkpt>
      <trkpt lat="46.2586269" lon="7.3811018">
        <ele>910.0</ele>
        <time>2016-08-23T17:30:47Z</time>
        <hdop>3.0</hdop>
        <extensions>
          <speed>6.0984015464782715</speed>
        </extensions>
      </trkpt>
      <trkpt lat="46.2585508" lon="7.3806731">
        <ele>905.0</ele>
        <time>2016-08-23T17:30:53Z</time>
        <hdop>3.0</hdop>
        <extensions>
          <speed>3.8237807750701904</speed>
        </extensions>
      </trkpt>
      <trkpt lat="46.2586782" lon="7.3806058">
        <ele>903.0</ele>
        <time>2016-08-23T17:30:58Z</time>
        <hdop>3.0</hdop>
        <extensions>
          <speed>3.762047290802002</speed>
        </extensions>
      </trkpt>
      <trkpt lat="46.2588123" lon="7.3807027">
        <ele>901.0</ele>
        <time>2016-08-23T17:31:04Z</time>
        <hdop>3.0</hdop>
        <extensions>
          <speed>1.1038568019866943</speed>
        </extensions>
      </trkpt>
      <trkpt lat="46.2586907" lon="7.3805737">
        <ele>899.0</ele>
        <time>2016-08-23T17:31:10Z</time>
        <hdop>3.0</hdop>
        <extensions>
          <speed>4.983753204345703</speed>
        </extensions>
      </trkpt>
      <trkpt lat="46.2584766" lon="7.3803264">
        <ele>899.0</ele>
        <time>2016-08-23T17:31:15Z</time>
        <hdop>3.0</hdop>
        <extensions>
          <speed>5.750426292419434</speed>
        </extensions>
      </trkpt>
      <trkpt lat="46.258207" lon="7.3801094">
        <ele>897.0</ele>
        <time>2016-08-23T17:31:21Z</time>
        <hdop>3.0</hdop>
        <extensions>
          <speed>5.571292877197266</speed>
        </extensions>
      </trkpt>
      <trkpt lat="46.2580015" lon="7.3797333">
        <ele>895.0</ele>
        <time>2016-08-23T17:31:26Z</time>
        <hdop>3.0</hdop>
        <extensions>
          <speed>7.928410530090332</speed>
        </extensions>
      </trkpt>
      <trkpt lat="46.2578534" lon="7.3792189">
        <ele>892.0</ele>
        <time>2016-08-23T17:31:31Z</time>
        <hdop>3.0</hdop>
        <extensions>
          <speed>9.090088844299316</speed>
        </extensions>
      </trkpt>
      <trkpt lat="46.2575775" lon="7.3785722">
        <ele>885.0</ele>
        <time>2016-08-23T17:31:37Z</time>
        <hdop>4.0</hdop>
        <extensions>
          <speed>9.34034252166748</speed>
        </extensions>
      </trkpt>
      <trkpt lat="46.2573814" lon="7.377821">
        <ele>881.0</ele>
        <time>2016-08-23T17:31:43Z</time>
        <hdop>3.0</hdop>
        <extensions>
          <speed>10.860662460327148</speed>
        </extensions>
      </trkpt>
      <trkpt lat="46.2572318" lon="7.377176">
        <ele>877.0</ele>
        <time>2016-08-23T17:31:48Z</time>
        <hdop>4.0</hdop>
        <extensions>
          <speed>9.950181007385254</speed>
        </extensions>
      </trkpt>
      <trkpt lat="46.2570616" lon="7.37649">
        <ele>873.0</ele>
        <time>2016-08-23T17:31:54Z</time>
        <hdop>5.0</hdop>
        <extensions>
          <speed>8.774469375610352</speed>
        </extensions>
      </trkpt>
      <trkpt lat="46.2569514" lon="7.3758539">
        <ele>869.0</ele>
        <time>2016-08-23T17:32:00Z</time>
        <hdop>4.0</hdop>
        <extensions>
          <speed>8.500288009643555</speed>
        </extensions>
      </trkpt>
      <trkpt lat="46.2568711" lon="7.3752901">
        <ele>866.0</ele>
        <time>2016-08-23T17:32:06Z</time>
        <hdop>3.0</hdop>
        <extensions>
          <speed>7.361147880554199</speed>
        </extensions>
      </trkpt>
      <trkpt lat="46.2565813" lon="7.3747784">
        <ele>859.0</ele>
        <time>2016-08-23T17:32:12Z</time>
        <hdop>4.0</hdop>
        <extensions>
          <speed>7.683443069458008</speed>
        </extensions>
      </trkpt>
      <trkpt lat="46.2564311" lon="7.3743472">
        <ele>856.0</ele>
        <time>2016-08-23T17:32:17Z</time>
        <hdop>3.0</hdop>
        <extensions>
          <speed>8.011017799377441</speed>
        </extensions>
      </trkpt>
      <trkpt lat="46.256175" lon="7.3738013">
        <ele>852.0</ele>
        <time>2016-08-23T17:32:23Z</time>
        <hdop>3.0</hdop>
        <extensions>
          <speed>7.82163667678833</speed>
        </extensions>
      </trkpt>
      <trkpt lat="46.2560222" lon="7.3732633">
        <ele>844.0</ele>
        <time>2016-08-23T17:32:28Z</time>
        <hdop>3.0</hdop>
        <extensions>
          <speed>9.449069023132324</speed>
        </extensions>
      </trkpt>
      <trkpt lat="46.2557651" lon="7.3729099">
        <ele>837.0</ele>
        <time>2016-08-23T17:32:34Z</time>
        <hdop>3.0</hdop>
        <extensions>
          <speed>7.627745628356934</speed>
        </extensions>
      </trkpt>
      <trkpt lat="46.2554089" lon="7.3728207">
        <ele>836.0</ele>
        <time>2016-08-23T17:32:39Z</time>
        <hdop>3.0</hdop>
        <extensions>
          <speed>8.610208511352539</speed>
        </extensions>
      </trkpt>
      <trkpt lat="46.2550267" lon="7.3727816">
        <ele>835.0</ele>
        <time>2016-08-23T17:32:45Z</time>
        <hdop>4.0</hdop>
        <extensions>
          <speed>7.250061988830566</speed>
        </extensions>
      </trkpt>
      <trkpt lat="46.2548109" lon="7.3725771">
        <ele>840.0</ele>
        <time>2016-08-23T17:32:51Z</time>
        <hdop>3.0</hdop>
        <extensions>
          <speed>3.6485750675201416</speed>
        </extensions>
      </trkpt>
      <trkpt lat="46.2546404" lon="7.3723481">
        <ele>843.0</ele>
        <time>2016-08-23T17:32:56Z</time>
        <hdop>3.0</hdop>
        <extensions>
          <speed>4.582455635070801</speed>
        </extensions>
      </trkpt>
      <trkpt lat="46.2544309" lon="7.3720566">
        <ele>843.0</ele>
        <time>2016-08-23T17:33:02Z</time>
        <hdop>3.0</hdop>
        <extensions>
          <speed>4.950252532958984</speed>
        </extensions>
      </trkpt>
      <trkpt lat="46.2541681" lon="7.3717722">
        <ele>841.0</ele>
        <time>2016-08-23T17:33:08Z</time>
        <hdop>3.0</hdop>
        <extensions>
          <speed>5.478776931762695</speed>
        </extensions>
      </trkpt>
      <trkpt lat="46.2539251" lon="7.3717504">
        <ele>839.0</ele>
        <time>2016-08-23T17:33:13Z</time>
        <hdop>3.0</hdop>
        <extensions>
          <speed>5.011436939239502</speed>
        </extensions>
      </trkpt>
      <trkpt lat="46.2536972" lon="7.3717505">
        <ele>839.0</ele>
        <time>2016-08-23T17:33:18Z</time>
        <hdop>3.0</hdop>
        <extensions>
          <speed>5.260770320892334</speed>
        </extensions>
      </trkpt>
      <trkpt lat="46.2534407" lon="7.3717325">
        <ele>841.0</ele>
        <time>2016-08-23T17:33:24Z</time>
        <hdop>3.0</hdop>
        <extensions>
          <speed>4.052085876464844</speed>
        </extensions>
      </trkpt>
      <trkpt lat="46.2532718" lon="7.3717564">
        <ele>842.0</ele>
        <time>2016-08-23T17:33:30Z</time>
        <hdop>3.0</hdop>
        <extensions>
          <speed>3.1503968238830566</speed>
        </extensions>
      </trkpt>
      <trkpt lat="46.2530854" lon="7.3717676">
        <ele>843.0</ele>
        <time>2016-08-23T17:33:35Z</time>
        <hdop>3.0</hdop>
        <extensions>
          <speed>4.822032928466797</speed>
        </extensions>
      </trkpt>
      <trkpt lat="46.2527111" lon="7.3718625">
        <ele>839.0</ele>
        <time>2016-08-23T17:33:41Z</time>
        <hdop>3.0</hdop>
        <extensions>
          <speed>7.89208459854126</speed>
        </extensions>
      </trkpt>
      <trkpt lat="46.2522959" lon="7.3722335">
        <ele>830.0</ele>
        <time>2016-08-23T17:33:47Z</time>
        <hdop>3.0</hdop>
        <extensions>
          <speed>10.327445030212402</speed>
        </extensions>
      </trkpt>
      <trkpt lat="46.2519712" lon="7.3723848">
        <ele>831.0</ele>
        <time>2016-08-23T17:33:53Z</time>
        <hdop>3.0</hdop>
        <extensions>
          <speed>6.1200079917907715</speed>
        </extensions>
      </trkpt>
      <trkpt lat="46.2517714" lon="7.3721851">
        <ele>832.0</ele>
        <time>2016-08-23T17:33:58Z</time>
        <hdop>3.0</hdop>
        <extensions>
          <speed>5.185103416442871</speed>
        </extensions>
      </trkpt>
      <trkpt lat="46.2515858" lon="7.3719029">
        <ele>836.0</ele>
        <time>2016-08-23T17:34:04Z</time>
        <hdop>3.0</hdop>
        <extensions>
          <speed>5.934180736541748</speed>
        </extensions>
      </trkpt>
      <trkpt lat="46.2513644" lon="7.3715792">
        <ele>833.0</ele>
        <time>2016-08-23T17:34:10Z</time>
        <hdop>3.0</hdop>
        <extensions>
          <speed>4.6802778244018555</speed>
        </extensions>
      </trkpt>
      <trkpt lat="46.2511351" lon="7.3712827">
        <ele>834.0</ele>
        <time>2016-08-23T17:34:16Z</time>
        <hdop>4.0</hdop>
        <extensions>
          <speed>4.904498100280762</speed>
        </extensions>
      </trkpt>
      <trkpt lat="46.2509473" lon="7.3710951">
        <ele>834.0</ele>
        <time>2016-08-23T17:34:21Z</time>
        <hdop>3.0</hdop>
        <extensions>
          <speed>4.1601080894470215</speed>
        </extensions>
      </trkpt>
      <trkpt lat="46.2507986" lon="7.3710319">
        <ele>835.0</ele>
        <time>2016-08-23T17:34:26Z</time>
        <hdop>3.0</hdop>
        <extensions>
          <speed>2.412073850631714</speed>
        </extensions>
      </trkpt>
      <trkpt lat="46.2506659" lon="7.3710814">
        <ele>837.0</ele>
        <time>2016-08-23T17:34:32Z</time>
        <hdop>3.0</hdop>
        <extensions>
          <speed>2.81455135345459</speed>
        </extensions>
      </trkpt>
      <trkpt lat="46.250469" lon="7.3711682">
        <ele>836.0</ele>
        <time>2016-08-23T17:34:38Z</time>
        <hdop>3.0</hdop>
        <extensions>
          <speed>4.911099910736084</speed>
        </extensions>
      </trkpt>
      <trkpt lat="46.2501016" lon="7.371323">
        <ele>830.0</ele>
        <time>2016-08-23T17:34:44Z</time>
        <hdop>3.0</hdop>
        <extensions>
          <speed>8.212052345275879</speed>
        </extensions>
      </trkpt>
      <trkpt lat="46.2496819" lon="7.3716452">
        <ele>824.0</ele>
        <time>2016-08-23T17:34:49Z</time>
        <hdop>3.0</hdop>
        <extensions>
          <speed>11.428499221801758</speed>
        </extensions>
      </trkpt>
      <trkpt lat="46.2491482" lon="7.3720059">
        <ele>821.0</ele>
        <time>2016-08-23T17:34:55Z</time>
        <hdop>3.0</hdop>
        <extensions>
          <speed>9.461712837219238</speed>
        </extensions>
      </trkpt>
      <trkpt lat="46.2488564" lon="7.3722008">
        <ele>820.0</ele>
        <time>2016-08-23T17:35:01Z</time>
        <hdop>3.0</hdop>
        <extensions>
          <speed>2.640000104904175</speed>
        </extensions>
      </trkpt>
      <trkpt lat="46.2486226" lon="7.3718255">
        <ele>814.0</ele>
        <time>2016-08-23T17:35:07Z</time>
        <hdop>3.0</hdop>
        <extensions>
          <speed>8.950810432434082</speed>
        </extensions>
      </trkpt>
      <trkpt lat="46.2483248" lon="7.3712487">
        <ele>805.0</ele>
        <time>2016-08-23T17:35:12Z</time>
        <hdop>3.0</hdop>
        <extensions>
          <speed>11.08372688293457</speed>
        </extensions>
      </trkpt>
      <trkpt lat="46.2478423" lon="7.3707587">
        <ele>796.0</ele>
        <time>2016-08-23T17:35:17Z</time>
        <hdop>3.0</hdop>
        <extensions>
          <speed>14.019746780395508</speed>
        </extensions>
      </trkpt>
      <trkpt lat="46.247316" lon="7.3702142">
        <ele>788.0</ele>
        <time>2016-08-23T17:35:23Z</time>
        <hdop>3.0</hdop>
        <extensions>
          <speed>9.164114952087402</speed>
        </extensions>
      </trkpt>
      <trkpt lat="46.2471442" lon="7.3706436">
        <ele>781.0</ele>
        <time>2016-08-23T17:35:29Z</time>
        <hdop>3.0</hdop>
        <extensions>
          <speed>10.136518478393555</speed>
        </extensions>
      </trkpt>
      <trkpt lat="46.2470153" lon="7.3715018">
        <ele>775.0</ele>
        <time>2016-08-23T17:35:35Z</time>
        <hdop>3.0</hdop>
        <extensions>
          <speed>9.920670509338379</speed>
        </extensions>
      </trkpt>
      <trkpt lat="46.2467906" lon="7.3716222">
        <ele>773.0</ele>
        <time>2016-08-23T17:35:41Z</time>
        <hdop>3.0</hdop>
        <extensions>
          <speed>6.594740390777588</speed>
        </extensions>
      </trkpt>
      <trkpt lat="46.2464578" lon="7.3714011">
        <ele>770.0</ele>
        <time>2016-08-23T17:35:46Z</time>
        <hdop>3.0</hdop>
        <extensions>
          <speed>8.985644340515137</speed>
        </extensions>
      </trkpt>
      <trkpt lat="46.246086" lon="7.3711033">
        <ele>767.0</ele>
        <time>2016-08-23T17:35:51Z</time>
        <hdop>3.0</hdop>
        <extensions>
          <speed>9.795902252197266</speed>
        </extensions>
      </trkpt>
      <trkpt lat="46.2457821" lon="7.370428">
        <ele>763.0</ele>
        <time>2016-08-23T17:35:57Z</time>
        <hdop>3.0</hdop>
        <extensions>
          <speed>10.81667709350586</speed>
        </extensions>
      </trkpt>
      <trkpt lat="46.2454552" lon="7.3697015">
        <ele>761.0</ele>
        <time>2016-08-23T17:36:03Z</time>
        <hdop>3.0</hdop>
        <extensions>
          <speed>10.831846237182617</speed>
        </extensions>
      </trkpt>
      <trkpt lat="46.2451618" lon="7.368989">
        <ele>758.0</ele>
        <time>2016-08-23T17:36:09Z</time>
        <hdop>3.0</hdop>
        <extensions>
          <speed>10.251097679138184</speed>
        </extensions>
      </trkpt>
      <trkpt lat="46.2449226" lon="7.3682857">
        <ele>756.0</ele>
        <time>2016-08-23T17:36:15Z</time>
        <hdop>3.0</hdop>
        <extensions>
          <speed>9.891637802124023</speed>
        </extensions>
      </trkpt>
      <trkpt lat="46.2450562" lon="7.3674563">
        <ele>751.0</ele>
        <time>2016-08-23T17:36:21Z</time>
        <hdop>3.0</hdop>
        <extensions>
          <speed>11.938111305236816</speed>
        </extensions>
      </trkpt>
      <trkpt lat="46.244973" lon="7.3667421">
        <ele>743.0</ele>
        <time>2016-08-23T17:36:26Z</time>
        <hdop>3.0</hdop>
        <extensions>
          <speed>12.536809921264648</speed>
        </extensions>
      </trkpt>
      <trkpt lat="46.2447935" lon="7.3662194">
        <ele>737.0</ele>
        <time>2016-08-23T17:36:32Z</time>
        <hdop>3.0</hdop>
        <extensions>
          <speed>9.789892196655273</speed>
        </extensions>
      </trkpt>
      <trkpt lat="46.2448122" lon="7.3655964">
        <ele>731.0</ele>
        <time>2016-08-23T17:36:37Z</time>
        <hdop>3.0</hdop>
        <extensions>
          <speed>11.348061561584473</speed>
        </extensions>
      </trkpt>
      <trkpt lat="46.2442099" lon="7.3652352">
        <ele>724.0</ele>
        <time>2016-08-23T17:36:43Z</time>
        <hdop>3.0</hdop>
        <extensions>
          <speed>12.513863563537598</speed>
        </extensions>
      </trkpt>
      <trkpt lat="46.2438664" lon="7.3648026">
        <ele>718.0</ele>
        <time>2016-08-23T17:36:48Z</time>
        <hdop>3.0</hdop>
        <extensions>
          <speed>8.191275596618652</speed>
        </extensions>
      </trkpt>
      <trkpt lat="46.2436278" lon="7.3646113">
        <ele>715.0</ele>
        <time>2016-08-23T17:36:54Z</time>
        <hdop>3.0</hdop>
        <extensions>
          <speed>5.285451889038086</speed>
        </extensions>
      </trkpt>
      <trkpt lat="46.243923" lon="7.3646192">
        <ele>713.0</ele>
        <time>2016-08-23T17:36:59Z</time>
        <hdop>3.0</hdop>
        <extensions>
          <speed>8.927580833435059</speed>
        </extensions>
      </trkpt>
      <trkpt lat="46.2443989" lon="7.3647934">
        <ele>708.0</ele>
        <time>2016-08-23T17:37:04Z</time>
        <hdop>3.0</hdop>
        <extensions>
          <speed>11.67071533203125</speed>
        </extensions>
      </trkpt>
      <trkpt lat="46.2444264" lon="7.3644208">
        <ele>706.0</ele>
        <time>2016-08-23T17:37:10Z</time>
        <hdop>3.0</hdop>
        <extensions>
          <speed>8.880415916442871</speed>
        </extensions>
      </trkpt>
      <trkpt lat="46.2439252" lon="7.3640323">
        <ele>699.0</ele>
        <time>2016-08-23T17:37:16Z</time>
        <hdop>3.0</hdop>
        <extensions>
          <speed>12.4429292678833</speed>
        </extensions>
      </trkpt>
      <trkpt lat="46.2433082" lon="7.3637365">
        <ele>692.0</ele>
        <time>2016-08-23T17:37:22Z</time>
        <hdop>3.0</hdop>
        <extensions>
          <speed>12.532075881958008</speed>
        </extensions>
      </trkpt>
      <trkpt lat="46.243011" lon="7.3635163">
        <ele>688.0</ele>
        <time>2016-08-23T17:37:28Z</time>
        <hdop>3.0</hdop>
        <extensions>
          <speed>6.8679327964782715</speed>
        </extensions>
      </trkpt>
      <trkpt lat="46.2435094" lon="7.3636093">
        <ele>685.0</ele>
        <time>2016-08-23T17:37:34Z</time>
        <hdop>3.0</hdop>
        <extensions>
          <speed>10.790204048156738</speed>
        </extensions>
      </trkpt>
      <trkpt lat="46.2441419" lon="7.3638559">
        <ele>679.0</ele>
        <time>2016-08-23T17:37:40Z</time>
        <hdop>3.0</hdop>
        <extensions>
          <speed>12.761857032775879</speed>
        </extensions>
      </trkpt>
      <trkpt lat="46.2447061" lon="7.3641473">
        <ele>673.0</ele>
        <time>2016-08-23T17:37:45Z</time>
        <hdop>3.0</hdop>
        <extensions>
          <speed>13.656661033630371</speed>
        </extensions>
      </trkpt>
      <trkpt lat="46.2453979" lon="7.3642426">
        <ele>666.0</ele>
        <time>2016-08-23T17:37:51Z</time>
        <hdop>3.0</hdop>
        <extensions>
          <speed>13.254164695739746</speed>
        </extensions>
      </trkpt>
      <trkpt lat="46.2457188" lon="7.3636752">
        <ele>662.0</ele>
        <time>2016-08-23T17:37:57Z</time>
        <hdop>3.0</hdop>
        <extensions>
          <speed>8.441515922546387</speed>
        </extensions>
      </trkpt>
      <trkpt lat="46.2451599" lon="7.3637453">
        <ele>658.0</ele>
        <time>2016-08-23T17:38:03Z</time>
        <hdop>3.0</hdop>
        <extensions>
          <speed>11.229021072387695</speed>
        </extensions>
      </trkpt>
      <trkpt lat="46.2446949" lon="7.3633726">
        <ele>652.0</ele>
        <time>2016-08-23T17:38:08Z</time>
        <hdop>3.0</hdop>
        <extensions>
          <speed>12.45857048034668</speed>
        </extensions>
      </trkpt>
      <trkpt lat="46.2441354" lon="7.3627819">
        <ele>646.0</ele>
        <time>2016-08-23T17:38:14Z</time>
        <hdop>3.0</hdop>
        <extensions>
          <speed>13.092852592468262</speed>
        </extensions>
      </trkpt>
      <trkpt lat="46.2435196" lon="7.3623376">
        <ele>641.0</ele>
        <time>2016-08-23T17:38:20Z</time>
        <hdop>3.0</hdop>
        <extensions>
          <speed>12.455798149108887</speed>
        </extensions>
      </trkpt>
      <trkpt lat="46.2429801" lon="7.3622011">
        <ele>635.0</ele>
        <time>2016-08-23T17:38:25Z</time>
        <hdop>3.0</hdop>
        <extensions>
          <speed>12.052556037902832</speed>
        </extensions>
      </trkpt>
      <trkpt lat="46.2423443" lon="7.3619267">
        <ele>629.0</ele>
        <time>2016-08-23T17:38:31Z</time>
        <hdop>3.0</hdop>
        <extensions>
          <speed>12.490011215209961</speed>
        </extensions>
      </trkpt>
      <trkpt lat="46.2419946" lon="7.3611814">
        <ele>625.0</ele>
        <time>2016-08-23T17:38:37Z</time>
        <hdop>3.0</hdop>
        <extensions>
          <speed>11.58725643157959</speed>
        </extensions>
      </trkpt>
      <trkpt lat="46.2417758" lon="7.3606303">
        <ele>623.0</ele>
        <time>2016-08-23T17:38:43Z</time>
        <hdop>3.0</hdop>
        <extensions>
          <speed>7.972264289855957</speed>
        </extensions>
      </trkpt>
      <trkpt lat="46.2413849" lon="7.3606233">
        <ele>621.0</ele>
        <time>2016-08-23T17:38:48Z</time>
        <hdop>3.0</hdop>
        <extensions>
          <speed>9.217429161071777</speed>
        </extensions>
      </trkpt>
      <trkpt lat="46.2408761" lon="7.3603411">
        <ele>616.0</ele>
        <time>2016-08-23T17:38:54Z</time>
        <hdop>3.0</hdop>
        <extensions>
          <speed>10.564852714538574</speed>
        </extensions>
      </trkpt>
      <trkpt lat="46.2403201" lon="7.3600592">
        <ele>613.0</ele>
        <time>2016-08-23T17:39:00Z</time>
        <hdop>3.0</hdop>
        <extensions>
          <speed>11.129101753234863</speed>
        </extensions>
      </trkpt>
      <trkpt lat="46.239823" lon="7.3598664">
        <ele>610.0</ele>
        <time>2016-08-23T17:39:05Z</time>
        <hdop>3.0</hdop>
        <extensions>
          <speed>11.75715160369873</speed>
        </extensions>
      </trkpt>
      <trkpt lat="46.2391675" lon="7.3597952">
        <ele>605.0</ele>
        <time>2016-08-23T17:39:11Z</time>
        <hdop>3.0</hdop>
        <extensions>
          <speed>12.192866325378418</speed>
        </extensions>
      </trkpt>
      <trkpt lat="46.238614" lon="7.359911">
        <ele>601.0</ele>
        <time>2016-08-23T17:39:16Z</time>
        <hdop>3.0</hdop>
        <extensions>
          <speed>12.443524360656738</speed>
        </extensions>
      </trkpt>
      <trkpt lat="46.2380648" lon="7.360081">
        <ele>599.0</ele>
        <time>2016-08-23T17:39:21Z</time>
        <hdop>3.0</hdop>
        <extensions>
          <speed>12.54996395111084</speed>
        </extensions>
      </trkpt>
      <trkpt lat="46.2373941" lon="7.3602124">
        <ele>594.0</ele>
        <time>2016-08-23T17:39:27Z</time>
        <hdop>3.0</hdop>
        <extensions>
          <speed>12.543416023254395</speed>
        </extensions>
      </trkpt>
      <trkpt lat="46.2367288" lon="7.3603203">
        <ele>590.0</ele>
        <time>2016-08-23T17:39:33Z</time>
        <hdop>3.0</hdop>
        <extensions>
          <speed>12.402938842773438</speed>
        </extensions>
      </trkpt>
      <trkpt lat="46.236197" lon="7.3604128">
        <ele>585.0</ele>
        <time>2016-08-23T17:39:38Z</time>
        <hdop>3.0</hdop>
        <extensions>
          <speed>11.540406227111816</speed>
        </extensions>
      </trkpt>
      <trkpt lat="46.2356561" lon="7.3605794">
        <ele>581.0</ele>
        <time>2016-08-23T17:39:44Z</time>
        <hdop>3.0</hdop>
        <extensions>
          <speed>9.654977798461914</speed>
        </extensions>
      </trkpt>
      <trkpt lat="46.2352494" lon="7.3605694">
        <ele>581.0</ele>
        <time>2016-08-23T17:39:49Z</time>
        <hdop>3.0</hdop>
        <extensions>
          <speed>8.711859703063965</speed>
        </extensions>
      </trkpt>
      <trkpt lat="46.2347974" lon="7.3605326">
        <ele>580.0</ele>
        <time>2016-08-23T17:39:55Z</time>
        <hdop>3.0</hdop>
        <extensions>
          <speed>8.201194763183594</speed>
        </extensions>
      </trkpt>
      <trkpt lat="46.2344333" lon="7.3604805">
        <ele>582.0</ele>
        <time>2016-08-23T17:40:00Z</time>
        <hdop>3.0</hdop>
        <extensions>
          <speed>7.792079448699951</speed>
        </extensions>
      </trkpt>
      <trkpt lat="46.2340502" lon="7.3604794">
        <ele>580.0</ele>
        <time>2016-08-23T17:40:06Z</time>
        <hdop>3.0</hdop>
        <extensions>
          <speed>7.530425548553467</speed>
        </extensions>
      </trkpt>
      <trkpt lat="46.2336522" lon="7.3605639">
        <ele>581.0</ele>
        <time>2016-08-23T17:40:12Z</time>
        <hdop>3.0</hdop>
        <extensions>
          <speed>7.131577968597412</speed>
        </extensions>
      </trkpt>
      <trkpt lat="46.2333444" lon="7.3606295">
        <ele>579.0</ele>
        <time>2016-08-23T17:40:17Z</time>
        <hdop>3.0</hdop>
        <extensions>
          <speed>7.790795803070068</speed>
        </extensions>
      </trkpt>
      <trkpt lat="46.232959" lon="7.3607998">
        <ele>577.0</ele>
        <time>2016-08-23T17:40:23Z</time>
        <hdop>3.0</hdop>
        <extensions>
          <speed>7.923055171966553</speed>
        </extensions>
      </trkpt>
      <trkpt lat="46.2327052" lon="7.3611997">
        <ele>573.0</ele>
        <time>2016-08-23T17:40:29Z</time>
        <hdop>4.0</hdop>
        <extensions>
          <speed>5.660035133361816</speed>
        </extensions>
      </trkpt>
      <trkpt lat="46.2327564" lon="7.3615836">
        <ele>571.0</ele>
        <time>2016-08-23T17:40:35Z</time>
        <hdop>4.0</hdop>
        <extensions>
          <speed>6.159999847412109</speed>
        </extensions>
      </trkpt>
      <trkpt lat="46.2324785" lon="7.361966">
        <ele>569.0</ele>
        <time>2016-08-23T17:40:40Z</time>
        <hdop>3.0</hdop>
        <extensions>
          <speed>6.770266056060791</speed>
        </extensions>
      </trkpt>
      <trkpt lat="46.2324186" lon="7.3624602">
        <ele>569.0</ele>
        <time>2016-08-23T17:40:46Z</time>
        <hdop>3.0</hdop>
        <extensions>
          <speed>6.300960540771484</speed>
        </extensions>
      </trkpt>
      <trkpt lat="46.2322486" lon="7.362806">
        <ele>569.0</ele>
        <time>2016-08-23T17:40:52Z</time>
        <hdop>3.0</hdop>
        <extensions>
          <speed>6.701462268829346</speed>
        </extensions>
      </trkpt>
      <trkpt lat="46.2320409" lon="7.3632263">
        <ele>566.0</ele>
        <time>2016-08-23T17:40:58Z</time>
        <hdop>3.0</hdop>
        <extensions>
          <speed>5.564754962921143</speed>
        </extensions>
      </trkpt>
      <trkpt lat="46.2319809" lon="7.3634587">
        <ele>566.0</ele>
        <time>2016-08-23T17:41:04Z</time>
        <hdop>3.0</hdop>
        <extensions>
          <speed>5.230774402618408</speed>
        </extensions>
      </trkpt>
      <trkpt lat="46.231898" lon="7.3638123">
        <ele>566.0</ele>
        <time>2016-08-23T17:41:09Z</time>
        <hdop>3.0</hdop>
        <extensions>
          <speed>6.1503987312316895</speed>
        </extensions>
      </trkpt>
      <trkpt lat="46.2316164" lon="7.3639352">
        <ele>568.0</ele>
        <time>2016-08-23T17:41:14Z</time>
        <hdop>3.0</hdop>
        <extensions>
          <speed>6.270725250244141</speed>
        </extensions>
      </trkpt>
      <trkpt lat="46.2314173" lon="7.3637701">
        <ele>569.0</ele>
        <time>2016-08-23T17:41:20Z</time>
        <hdop>3.0</hdop>
        <extensions>
          <speed>3.3233869075775146</speed>
        </extensions>
      </trkpt>
      <trkpt lat="46.2314031" lon="7.3637432">
        <ele>568.0</ele>
        <time>2016-08-23T17:41:26Z</time>
        <hdop>4.0</hdop>
      </trkpt>
      <trkpt lat="46.2314098" lon="7.3637272">
        <ele>569.0</ele>
        <time>2016-08-23T17:41:32Z</time>
        <hdop>8.0</hdop>
      </trkpt>
      <trkpt lat="46.2314256" lon="7.363717">
        <ele>570.0</ele>
        <time>2016-08-23T17:41:38Z</time>
        <hdop>11.0</hdop>
      </trkpt>
      <trkpt lat="46.2314256" lon="7.3637168">
        <ele>570.0</ele>
        <time>2016-08-23T17:41:44Z</time>
        <hdop>16.0</hdop>
      </trkpt>
      <trkpt lat="46.2314256" lon="7.3637166">
        <ele>570.0</ele>
        <time>2016-08-23T17:41:50Z</time>
        <hdop>17.0</hdop>
      </trkpt>
      <trkpt lat="46.2314256" lon="7.3637166">
        <ele>570.0</ele>
        <time>2016-08-23T17:41:55Z</time>
        <hdop>30.0</hdop>
      </trkpt>
      <trkpt lat="46.2314256" lon="7.3637166">
        <ele>570.0</ele>
        <time>2016-08-23T17:42:00Z</time>
        <hdop>46.0</hdop>
      </trkpt>
      <trkpt lat="46.2314256" lon="7.3637166">
        <ele>570.0</ele>
        <time>2016-08-23T17:42:06Z</time>
        <hdop>71.0</hdop>
      </trkpt>
      <trkpt lat="46.2314741" lon="7.3636202">
        <ele>538.0</ele>
        <time>2016-08-23T17:45:14Z</time>
        <hdop>36.0</hdop>
        <extensions>
          <speed>0.7905694246292114</speed>
        </extensions>
      </trkpt>
    </trkseg>
  </trk>
</gpx>